Observation data for Brownfield on 04/17/2021      Previous  Date  Next       Current Mesonet Observations  Soil Data  Daily Summary Page  Observations in Plain Language
KBWS 170500Z 03012KT 06/00 A3012 RMK A01 T006000-0  RH  065%=      5-min Rain = 0
KBWS 170501Z 03012KT 06/00 A3012 RMK A01 T006000-0  RH  065%=      5-min Rain = 0
KBWS 170502Z 03014KT 06/00 A3012 RMK A01 T006000-0  RH  065%=      5-min Rain = 0
KBWS 170503Z 03011G16KT 06/00 A3013 RMK A01 T006000-0  RH  065%=      5-min Rain = 0
KBWS 170504Z 04012KT 06/00 A3013 RMK A01 T00600000  RH  066%=      5-min Rain = 0
KBWS 170505Z 04014KT 06/00 A3013 RMK A01 T00600000  RH  066%=      5-min Rain = 0
KBWS 170506Z 04013KT 06/00 A3013 RMK A01 T00600000  RH  066%=      5-min Rain = 0
KBWS 170507Z 04014KT 06/00 A3013 RMK A01 T006000-0  RH  065%=      5-min Rain = 0
KBWS 170508Z 04012KT 06/M00 A3013 RMK A01 T00601001  RH  065%=      5-min Rain = 0
KBWS 170509Z 04012KT 06/00 A3013 RMK A01 T00600000  RH  066%=      5-min Rain = 0
KBWS 170510Z 04010KT 06/00 A3013 RMK A01 T00590001  RH  066%=      5-min Rain = 0
KBWS 170511Z 04011KT 06/00 A3013 RMK A01 T00590001  RH  066%=      5-min Rain = 0
KBWS 170512Z 03013KT 06/00 A3013 RMK A01 T00590000  RH  066%=      5-min Rain = 0
KBWS 170513Z 04011KT 06/00 A3013 RMK A01 T00590000  RH  066%=      5-min Rain = 0
KBWS 170514Z 03013KT 06/00 A3013 RMK A01 T00590000  RH  066%=      5-min Rain = 0
KBWS 170515Z 04013G18KT 06/00 A3013 RMK A01 T005900-0  RH  066%=      5-min Rain = 0
KBWS 170516Z 04014KT 06/M00 A3013 RMK A01 T00591001  RH  066%=      5-min Rain = 0
KBWS 170517Z 04012KT 06/M00 A3013 RMK A01 T00591001  RH  066%=      5-min Rain = 0
KBWS 170518Z 03012KT 06/00 A3013 RMK A01 T005900-0  RH  066%=      5-min Rain = 0
KBWS 170519Z 03010KT 06/00 A3013 RMK A01 T00580000  RH  066%=      5-min Rain = 0
KBWS 170520Z 03013KT 06/00 A3013 RMK A01 T00580001  RH  066%=      5-min Rain = 0
KBWS 170521Z 03015G20KT 06/00 A3013 RMK A01 T005800-0  RH  066%=      5-min Rain = 0
KBWS 170522Z 03018KT 06/M00 A3013 RMK A01 T00581001  RH  065%=      5-min Rain = 0
KBWS 170523Z 03015G20KT 06/M00 A3013 RMK A01 T00581003  RH  065%=      5-min Rain = 0
KBWS 170524Z 03014KT 06/M00 A3013 RMK A01 T00591002  RH  065%=      5-min Rain = 0
KBWS 170525Z 03014KT 06/M00 A3013 RMK A01 T00591002  RH  065%=      5-min Rain = 0
KBWS 170526Z 03014KT 06/M00 A3013 RMK A01 T00591002  RH  065%=      5-min Rain = 0
KBWS 170527Z 03017G22KT 06/M00 A3013 RMK A01 T00591002  RH  065%=      5-min Rain = 0
KBWS 170528Z 03015KT 06/M00 A3013 RMK A01 T00591002  RH  065%=      5-min Rain = 0
KBWS 170529Z 03014KT 06/M00 A3013 RMK A01 T00591002  RH  065%=      5-min Rain = 0
KBWS 170530Z 02016KT 06/M00 A3013 RMK A01 T00591002  RH  065%=      5-min Rain = 0
KBWS 170531Z 03016G22KT 06/M00 A3013 RMK A01 T00591002  RH  065%=      5-min Rain = 0
KBWS 170532Z 03016KT 06/M00 A3013 RMK A01 T00591002  RH  065%=      5-min Rain = 0
KBWS 170533Z 03019KT 06/M00 A3013 RMK A01 T00591002  RH  065%=      5-min Rain = 0
KBWS 170534Z 03019KT 06/M00 A3013 RMK A01 T00591003  RH  065%=      5-min Rain = 0
KBWS 170535Z 02018G24KT 06/M00 A3013 RMK A01 T00591003  RH  065%=      5-min Rain = 0
KBWS 170536Z 03014KT 06/M00 A3013 RMK A01 T00591002  RH  065%=      5-min Rain = 0
KBWS 170537Z 03014KT 06/M00 A3013 RMK A01 T00591002  RH  065%=      5-min Rain = 0
KBWS 170538Z 03017G22KT 06/M00 A3013 RMK A01 T00581002  RH  065%=      5-min Rain = 0
KBWS 170539Z 03017KT 06/M00 A3012 RMK A01 T00581002  RH  065%=      5-min Rain = 0
KBWS 170540Z 03016KT 06/M00 A3013 RMK A01 T00581002  RH  065%=      5-min Rain = 0
KBWS 170541Z 03015KT 06/M00 A3013 RMK A01 T00581002  RH  065%=      5-min Rain = 0
KBWS 170542Z 03012KT 06/M00 A3013 RMK A01 T00581002  RH  066%=      5-min Rain = 0
KBWS 170543Z 03013KT 06/M00 A3013 RMK A01 T00581001  RH  066%=      5-min Rain = 0
KBWS 170544Z 03015KT 06/M00 A3013 RMK A01 T00581001  RH  066%=      5-min Rain = 0
KBWS 170545Z 03016KT 06/M00 A3013 RMK A01 T00571002  RH  066%=      5-min Rain = 0
KBWS 170546Z 03013KT 06/M00 A3013 RMK A01 T00571001  RH  066%=      5-min Rain = 0
KBWS 170547Z 03014KT 06/M00 A3013 RMK A01 T00571001  RH  066%=      5-min Rain = 0
KBWS 170548Z 03014G19KT 06/M00 A3013 RMK A01 T00571001  RH  066%=      5-min Rain = 0
KBWS 170549Z 03014KT 06/M00 A3013 RMK A01 T00571001  RH  066%=      5-min Rain = 0
KBWS 170550Z 02014G19KT 06/M00 A3013 RMK A01 T00571001  RH  066%=      5-min Rain = 0
KBWS 170551Z 03012G17KT 06/M00 A3013 RMK A01 T00571002  RH  066%=      5-min Rain = 0
KBWS 170552Z 03015KT 06/M00 A3013 RMK A01 T00571001  RH  066%=      5-min Rain = 0
KBWS 170553Z 02016KT 06/M00 A3013 RMK A01 T00571001  RH  066%=      5-min Rain = 0
KBWS 170554Z 02016KT 06/M00 A3013 RMK A01 T00571002  RH  066%=      5-min Rain = 0
KBWS 170555Z 02015KT 06/M00 A3013 RMK A01 T00571002  RH  066%=      5-min Rain = 0
KBWS 170556Z 03015KT 06/M00 A3013 RMK A01 T00571002  RH  066%=      5-min Rain = 0
KBWS 170557Z 02014KT 06/M00 A3013 RMK A01 T00571002  RH  066%=      5-min Rain = 0
KBWS 170558Z 02013KT 06/M00 A3013 RMK A01 T00561001  RH  066%=      5-min Rain = 0
KBWS 170559Z 02015G20KT 06/M00 A3013 RMK A01 T00561001  RH  066%=      5-min Rain = 0
KBWS 170600Z 02017KT 06/M00 A3013 RMK A01 T00561002  RH  066%=      5-min Rain = 0
KBWS 170601Z 02015KT 06/M00 A3013 RMK A01 T00561002  RH  066%=      5-min Rain = 0
KBWS 170602Z 02016KT 06/M00 A3013 RMK A01 T00561002  RH  066%=      5-min Rain = 0
KBWS 170603Z 02016KT 06/M00 A3013 RMK A01 T00561002  RH  066%=      5-min Rain = 0
KBWS 170604Z 03017KT 06/M00 A3013 RMK A01 T00561003  RH  066%=      5-min Rain = 0
KBWS 170605Z 03015KT 06/M00 A3013 RMK A01 T00561002  RH  066%=      5-min Rain = 0
KBWS 170606Z 02013KT 06/M00 A3013 RMK A01 T00561002  RH  066%=      5-min Rain = 0
KBWS 170607Z 02015G21KT 06/M00 A3013 RMK A01 T00551002  RH  067%=      5-min Rain = 0
KBWS 170608Z 03015G20KT 06/M00 A3013 RMK A01 T00551002  RH  066%=      5-min Rain = 0
KBWS 170609Z 02015KT 06/M00 A3012 RMK A01 T00551002  RH  066%=      5-min Rain = 0
KBWS 170610Z 02018KT 06/M00 A3012 RMK A01 T00551002  RH  066%=      5-min Rain = 0
KBWS 170611Z 03017KT 06/M00 A3012 RMK A01 T00551003  RH  066%=      5-min Rain = 0
KBWS 170612Z 03018KT 06/M00 A3012 RMK A01 T00551003  RH  066%=      5-min Rain = 0
KBWS 170613Z 03017KT 06/M00 A3012 RMK A01 T00551003  RH  066%=      5-min Rain = 0
KBWS 170614Z 02016KT 06/M00 A3013 RMK A01 T00551002  RH  066%=      5-min Rain = 0
KBWS 170615Z 02015G20KT 06/M00 A3013 RMK A01 T00551002  RH  067%=      5-min Rain = 0
KBWS 170616Z 02015KT 06/M00 A3013 RMK A01 T00551003  RH  067%=      5-min Rain = 0
KBWS 170617Z 02016KT 06/M00 A3013 RMK A01 T00551003  RH  066%=      5-min Rain = 0
KBWS 170618Z 02016KT 06/M00 A3013 RMK A01 T00551003  RH  066%=      5-min Rain = 0
KBWS 170619Z 03014KT 06/M00 A3014 RMK A01 T00551003  RH  066%=      5-min Rain = 0
KBWS 170620Z 03012KT 06/M00 A3014 RMK A01 T00551003  RH  067%=      5-min Rain = 0
KBWS 170621Z 03011KT 06/M00 A3014 RMK A01 T00551002  RH  067%=      5-min Rain = 0
KBWS 170622Z 03011KT 06/M00 A3014 RMK A01 T00551002  RH  067%=      5-min Rain = 0
KBWS 170623Z 03009KT 06/M00 A3014 RMK A01 T00551002  RH  067%=      5-min Rain = 0
KBWS 170624Z 04011KT 05/M00 A3014 RMK A01 T00541002  RH  067%=      5-min Rain = 0
KBWS 170625Z 04011KT 05/M00 A3015 RMK A01 T00541002  RH  067%=      5-min Rain = 0
KBWS 170626Z 04010KT 05/M00 A3015 RMK A01 T00541002  RH  067%=      5-min Rain = 0
KBWS 170627Z 03011KT 05/M00 A3015 RMK A01 T00541003  RH  067%=      5-min Rain = 0
KBWS 170628Z 04010KT 05/M00 A3015 RMK A01 T00541003  RH  067%=      5-min Rain = 0
KBWS 170629Z 04011KT 05/M00 A3015 RMK A01 T00541002  RH  067%=      5-min Rain = 0
KBWS 170630Z 04010KT 05/M00 A3015 RMK A01 T00541003  RH  067%=      5-min Rain = 0
KBWS 170631Z 04011KT 05/M00 A3015 RMK A01 T00541003  RH  067%=      5-min Rain = 0
KBWS 170632Z 04010KT 05/M00 A3015 RMK A01 T00541003  RH  067%=      5-min Rain = 0
KBWS 170633Z 04010KT 05/M00 A3016 RMK A01 T00541003  RH  067%=      5-min Rain = 0
KBWS 170634Z 05009KT 05/M00 A3016 RMK A01 T00541002  RH  067%=      5-min Rain = 0
KBWS 170635Z 04009KT 05/M00 A3016 RMK A01 T00541001  RH  068%=      5-min Rain = 0
KBWS 170636Z 04010KT 05/M00 A3016 RMK A01 T00541002  RH  067%=      5-min Rain = 0
KBWS 170637Z 04010KT 05/M00 A3016 RMK A01 T00541002  RH  067%=      5-min Rain = 0
KBWS 170638Z 05010KT 05/M00 A3016 RMK A01 T00541002  RH  067%=      5-min Rain = 0
KBWS 170639Z 05010KT 05/M00 A3016 RMK A01 T00541001  RH  068%=      5-min Rain = 0
KBWS 170640Z 05010KT 05/M00 A3016 RMK A01 T00541001  RH  068%=      5-min Rain = 0
KBWS 170641Z 05008KT 05/00 A3016 RMK A01 T005400-0  RH  068%=      5-min Rain = 0
KBWS 170642Z 05011KT 05/00 A3016 RMK A01 T00540000  RH  068%=      5-min Rain = 0
KBWS 170643Z 05009KT 05/M00 A3016 RMK A01 T00541001  RH  068%=      5-min Rain = 0
KBWS 170644Z 05009KT 05/M00 A3016 RMK A01 T00541001  RH  068%=      5-min Rain = 0
KBWS 170645Z 05009KT 05/00 A3016 RMK A01 T00540000  RH  068%=      5-min Rain = 0
KBWS 170646Z 05007KT 05/00 A3016 RMK A01 T005400-0  RH  068%=      5-min Rain = 0
KBWS 170647Z 04008KT 05/00 A3016 RMK A01 T00540001  RH  069%=      5-min Rain = 0
KBWS 170648Z 04008KT 05/00 A3016 RMK A01 T00530000  RH  068%=      5-min Rain = 0
KBWS 170649Z 04008KT 05/00 A3016 RMK A01 T005300-0  RH  068%=      5-min Rain = 0
KBWS 170650Z 04008KT 05/00 A3016 RMK A01 T005300-0  RH  069%=      5-min Rain = 0
KBWS 170651Z 04009KT 05/00 A3016 RMK A01 T005200-0  RH  069%=      5-min Rain = 0
KBWS 170652Z 04010KT 05/M00 A3016 RMK A01 T00521001  RH  068%=      5-min Rain = 0
KBWS 170653Z 04010KT 05/M00 A3016 RMK A01 T00521001  RH  068%=      5-min Rain = 0
KBWS 170654Z 04009KT 05/M00 A3016 RMK A01 T00521001  RH  068%=      5-min Rain = 0
KBWS 170655Z 04009KT 05/M00 A3016 RMK A01 T00521001  RH  068%=      5-min Rain = 0
KBWS 170656Z 04009KT 05/M00 A3016 RMK A01 T00521001  RH  069%=      5-min Rain = 0
KBWS 170657Z 03008KT 05/M00 A3016 RMK A01 T00521001  RH  068%=      5-min Rain = 0
KBWS 170658Z 04008KT 05/00 A3016 RMK A01 T005200-0  RH  069%=      5-min Rain = 0
KBWS 170659Z 03008KT 05/M00 A3016 RMK A01 T00521001  RH  069%=      5-min Rain = 0
KBWS 170700Z 04007KT 05/00 A3016 RMK A01 T005200-0  RH  069%=      5-min Rain = 0
KBWS 170701Z 04008KT 05/00 A3016 RMK A01 T00520000  RH  069%=      5-min Rain = 0
KBWS 170702Z 04008KT 05/00 A3016 RMK A01 T005200-0  RH  069%=      5-min Rain = 0
KBWS 170703Z 05008KT 05/00 A3016 RMK A01 T005200-0  RH  069%=      5-min Rain = 0
KBWS 170704Z 05007KT 05/00 A3017 RMK A01 T00520000  RH  069%=      5-min Rain = 0
KBWS 170705Z 04007KT 05/00 A3017 RMK A01 T00520001  RH  069%=      5-min Rain = 0
KBWS 170706Z 04008KT 05/00 A3017 RMK A01 T00520000  RH  069%=      5-min Rain = 0
KBWS 170707Z 04007KT 05/00 A3017 RMK A01 T005200-0  RH  069%=      5-min Rain = 0
KBWS 170708Z 05007KT 05/00 A3017 RMK A01 T005200-0  RH  069%=      5-min Rain = 0
KBWS 170709Z 05005KT 05/00 A3017 RMK A01 T00520000  RH  069%=      5-min Rain = 0
KBWS 170710Z 04006KT 05/00 A3017 RMK A01 T00520001  RH  070%=      5-min Rain = 0
KBWS 170711Z 04007KT 05/00 A3017 RMK A01 T005200-0  RH  069%=      5-min Rain = 0
KBWS 170712Z 04008KT 05/M00 A3017 RMK A01 T00511001  RH  069%=      5-min Rain = 0
KBWS 170713Z 05008KT 05/M00 A3017 RMK A01 T00511002  RH  068%=      5-min Rain = 0
KBWS 170714Z 04007KT 05/M00 A3017 RMK A01 T00521002  RH  068%=      5-min Rain = 0
KBWS 170715Z 04008KT 05/M00 A3017 RMK A01 T00521002  RH  068%=      5-min Rain = 0
KBWS 170716Z 04009KT 05/M00 A3016 RMK A01 T00521001  RH  069%=      5-min Rain = 0
KBWS 170717Z 04008KT 05/M00 A3016 RMK A01 T00521001  RH  069%=      5-min Rain = 0
KBWS 170718Z 05007KT 05/M00 A3017 RMK A01 T00521001  RH  069%=      5-min Rain = 0
KBWS 170719Z 05007KT 05/00 A3017 RMK A01 T00520001  RH  069%=      5-min Rain = 0
KBWS 170720Z 04008KT 05/00 A3017 RMK A01 T00520000  RH  069%=      5-min Rain = 0
KBWS 170721Z 04007KT 05/M00 A3017 RMK A01 T00511001  RH  069%=      5-min Rain = 0
KBWS 170722Z 05007KT 05/00 A3017 RMK A01 T005100-0  RH  069%=      5-min Rain = 0
KBWS 170723Z 05007KT 05/M00 A3017 RMK A01 T00511001  RH  069%=      5-min Rain = 0
KBWS 170724Z 04007KT 05/00 A3017 RMK A01 T00500001  RH  070%=      5-min Rain = 0
KBWS 170725Z 04006KT 05/00 A3017 RMK A01 T00500000  RH  070%=      5-min Rain = 0
KBWS 170726Z 04006KT 05/00 A3017 RMK A01 T005000-0  RH  070%=      5-min Rain = 0
KBWS 170727Z 04007KT 05/00 A3017 RMK A01 T004900-0  RH  070%=      5-min Rain = 0
KBWS 170728Z 04007KT 05/00 A3017 RMK A01 T004900-0  RH  070%=      5-min Rain = 0
KBWS 170729Z 04006KT 05/M00 A3017 RMK A01 T00491001  RH  070%=      5-min Rain = 0
KBWS 170730Z 03007KT 05/M00 A3017 RMK A01 T00491001  RH  070%=      5-min Rain = 0
KBWS 170731Z 03007KT 05/M00 A3017 RMK A01 T00491001  RH  070%=      5-min Rain = 0
KBWS 170732Z 03007KT 05/M00 A3017 RMK A01 T00491001  RH  070%=      5-min Rain = 0
KBWS 170733Z 03007KT 05/M00 A3017 RMK A01 T00491001  RH  070%=      5-min Rain = 0
KBWS 170734Z 03006KT 05/M00 A3017 RMK A01 T00491001  RH  070%=      5-min Rain = 0
KBWS 170735Z 04006KT 05/M00 A3017 RMK A01 T00491001  RH  070%=      5-min Rain = 0
KBWS 170736Z 04005KT 05/M00 A3017 RMK A01 T00491001  RH  070%=      5-min Rain = 0
KBWS 170737Z 04006KT 05/00 A3017 RMK A01 T004900-0  RH  071%=      5-min Rain = 0
KBWS 170738Z 04006KT 05/M00 A3017 RMK A01 T00491001  RH  070%=      5-min Rain = 0
KBWS 170739Z 04006KT 05/M00 A3017 RMK A01 T00491001  RH  070%=      5-min Rain = 0
KBWS 170740Z 04006KT 05/M00 A3017 RMK A01 T00491002  RH  070%=      5-min Rain = 0
KBWS 170741Z 04006KT 05/M00 A3017 RMK A01 T00501002  RH  069%=      5-min Rain = 0
KBWS 170742Z 05006KT 05/M00 A3017 RMK A01 T00491001  RH  070%=      5-min Rain = 0
KBWS 170743Z 04006KT 05/M00 A3017 RMK A01 T00491002  RH  070%=      5-min Rain = 0
KBWS 170744Z 04007KT 05/M00 A3017 RMK A01 T00501001  RH  070%=      5-min Rain = 0
KBWS 170745Z 03007KT 05/M00 A3017 RMK A01 T00501003  RH  069%=      5-min Rain = 0
KBWS 170746Z 04008KT 05/M00 A3017 RMK A01 T00501002  RH  069%=      5-min Rain = 0
KBWS 170747Z 04008KT 05/M00 A3017 RMK A01 T00501003  RH  069%=      5-min Rain = 0
KBWS 170748Z 04007KT 05/M00 A3017 RMK A01 T00501004  RH  068%=      5-min Rain = 0
KBWS 170749Z 04008KT 05/M00 A3017 RMK A01 T00511003  RH  068%=      5-min Rain = 0
KBWS 170750Z 04008KT 05/M00 A3017 RMK A01 T00511003  RH  068%=      5-min Rain = 0
KBWS 170751Z 04007KT 05/M00 A3017 RMK A01 T00511003  RH  068%=      5-min Rain = 0
KBWS 170752Z 05006KT 05/M00 A3017 RMK A01 T00511002  RH  069%=      5-min Rain = 0
KBWS 170753Z 04006KT 05/M00 A3017 RMK A01 T00501002  RH  069%=      5-min Rain = 0
KBWS 170754Z 04007KT 05/M00 A3017 RMK A01 T00501001  RH  070%=      5-min Rain = 0
KBWS 170755Z 04007KT 05/M00 A3017 RMK A01 T00491001  RH  070%=      5-min Rain = 0
KBWS 170756Z 05007KT 05/M00 A3017 RMK A01 T00491001  RH  070%=      5-min Rain = 0
KBWS 170757Z 04007KT 05/00 A3017 RMK A01 T00490000  RH  071%=      5-min Rain = 0
KBWS 170758Z 04007KT 05/M00 A3017 RMK A01 T00491002  RH  070%=      5-min Rain = 0
KBWS 170759Z 04008KT 05/M00 A3017 RMK A01 T00491002  RH  070%=      5-min Rain = 0
KBWS 170800Z 04008KT 05/M00 A3016 RMK A01 T00491003  RH  069%=      5-min Rain = 0
KBWS 170801Z 04009KT 05/M00 A3016 RMK A01 T00491002  RH  070%=      5-min Rain = 0
KBWS 170802Z 04008KT 05/M00 A3016 RMK A01 T00481002  RH  070%=      5-min Rain = 0
KBWS 170803Z 03009KT 05/M00 A3016 RMK A01 T00481002  RH  070%=      5-min Rain = 0
KBWS 170804Z 04010KT 05/M00 A3016 RMK A01 T00481003  RH  070%=      5-min Rain = 0
KBWS 170805Z 04008KT 05/M00 A3016 RMK A01 T00481004  RH  069%=      5-min Rain = 0
KBWS 170806Z 04010KT 05/M00 A3016 RMK A01 T00481004  RH  069%=      5-min Rain = 0
KBWS 170807Z 04009KT 05/M01 A3016 RMK A01 T00491005  RH  068%=      5-min Rain = 0
KBWS 170808Z 04010KT 05/M00 A3016 RMK A01 T00491004  RH  068%=      5-min Rain = 0
KBWS 170809Z 04009KT 05/M01 A3016 RMK A01 T00491006  RH  068%=      5-min Rain = 0
KBWS 170810Z 04008KT 05/M01 A3016 RMK A01 T00491005  RH  068%=      5-min Rain = 0
KBWS 170811Z 04008KT 05/M00 A3016 RMK A01 T00491004  RH  068%=      5-min Rain = 0
KBWS 170812Z 04008KT 05/M00 A3016 RMK A01 T00491004  RH  069%=      5-min Rain = 0
KBWS 170813Z 03009KT 05/M00 A3016 RMK A01 T00491004  RH  068%=      5-min Rain = 0
KBWS 170814Z 03009KT 05/M01 A3016 RMK A01 T00491005  RH  068%=      5-min Rain = 0
KBWS 170815Z 03008KT 05/M01 A3016 RMK A01 T00491005  RH  068%=      5-min Rain = 0
KBWS 170816Z 03010KT 05/M01 A3016 RMK A01 T00491005  RH  068%=      5-min Rain = 0
KBWS 170817Z 03011KT 05/M01 A3016 RMK A01 T00491006  RH  068%=      5-min Rain = 0
KBWS 170818Z 03010KT 05/M01 A3016 RMK A01 T00491006  RH  067%=      5-min Rain = 0
KBWS 170819Z 03009KT 05/M01 A3016 RMK A01 T00491006  RH  068%=      5-min Rain = 0
KBWS 170820Z 03008KT 05/M01 A3016 RMK A01 T00491005  RH  068%=      5-min Rain = 0
KBWS 170821Z 03009KT 05/M01 A3016 RMK A01 T00481005  RH  068%=      5-min Rain = 0
KBWS 170822Z 03010KT 05/M01 A3016 RMK A01 T00481005  RH  069%=      5-min Rain = 0
KBWS 170823Z 03010KT 05/M01 A3016 RMK A01 T00481005  RH  069%=      5-min Rain = 0
KBWS 170824Z 03010KT 05/M01 A3016 RMK A01 T00481005  RH  069%=      5-min Rain = 0
KBWS 170825Z 03010KT 05/M01 A3016 RMK A01 T00481005  RH  068%=      5-min Rain = 0
KBWS 170826Z 02010KT 05/M01 A3016 RMK A01 T00481005  RH  068%=      5-min Rain = 0
KBWS 170827Z 02010KT 05/M01 A3016 RMK A01 T00481005  RH  068%=      5-min Rain = 0
KBWS 170828Z 03010KT 05/M01 A3015 RMK A01 T00481006  RH  068%=      5-min Rain = 0
KBWS 170829Z 03012KT 05/M01 A3015 RMK A01 T00481006  RH  068%=      5-min Rain = 0
KBWS 170830Z 03010KT 05/M01 A3016 RMK A01 T00481006  RH  068%=      5-min Rain = 0
KBWS 170831Z 03010KT 05/M01 A3016 RMK A01 T00481006  RH  068%=      5-min Rain = 0
KBWS 170832Z 03010KT 05/M01 A3016 RMK A01 T00481006  RH  068%=      5-min Rain = 0
KBWS 170833Z 03010KT 05/M01 A3016 RMK A01 T00481006  RH  068%=      5-min Rain = 0
KBWS 170834Z 03009KT 05/M01 A3016 RMK A01 T00481006  RH  068%=      5-min Rain = 0
KBWS 170835Z 03008KT 05/M01 A3016 RMK A01 T00481005  RH  068%=      5-min Rain = 0
KBWS 170836Z 03008KT 05/M01 A3016 RMK A01 T00481005  RH  069%=      5-min Rain = 0
KBWS 170837Z 03009KT 05/M00 A3016 RMK A01 T00481004  RH  069%=      5-min Rain = 0
KBWS 170838Z 03008KT 05/M00 A3016 RMK A01 T00481004  RH  069%=      5-min Rain = 0
KBWS 170839Z 03009KT 05/M00 A3016 RMK A01 T00481004  RH  069%=      5-min Rain = 0
KBWS 170840Z 03007KT 05/M01 A3016 RMK A01 T00481005  RH  069%=      5-min Rain = 0
KBWS 170841Z 04007KT 05/M00 A3016 RMK A01 T00481004  RH  069%=      5-min Rain = 0
KBWS 170842Z 03009KT 05/M00 A3016 RMK A01 T00481003  RH  069%=      5-min Rain = 0
KBWS 170843Z 03007KT 05/M00 A3016 RMK A01 T00481003  RH  069%=      5-min Rain = 0
KBWS 170844Z 03006KT 05/M00 A3016 RMK A01 T00481002  RH  070%=      5-min Rain = 0
KBWS 170845Z 03007KT 05/M00 A3015 RMK A01 T00481002  RH  070%=      5-min Rain = 0
KBWS 170846Z 03009KT 05/M00 A3015 RMK A01 T00481003  RH  070%=      5-min Rain = 0
KBWS 170847Z 03008KT 05/M00 A3015 RMK A01 T00481003  RH  070%=      5-min Rain = 0
KBWS 170848Z 02008KT 05/M00 A3015 RMK A01 T00481003  RH  070%=      5-min Rain = 0
KBWS 170849Z 03008KT 05/M00 A3015 RMK A01 T00481003  RH  070%=      5-min Rain = 0
KBWS 170850Z 03009KT 05/M00 A3015 RMK A01 T00481003  RH  069%=      5-min Rain = 0
KBWS 170851Z 03008KT 05/M00 A3015 RMK A01 T00481004  RH  069%=      5-min Rain = 0
KBWS 170852Z 03009KT 05/M00 A3015 RMK A01 T00481004  RH  069%=      5-min Rain = 0
KBWS 170853Z 03008KT 05/M01 A3015 RMK A01 T00481005  RH  069%=      5-min Rain = 0
KBWS 170854Z 04010KT 05/M00 A3015 RMK A01 T00481004  RH  069%=      5-min Rain = 0
KBWS 170855Z 03011KT 05/M01 A3015 RMK A01 T00481005  RH  068%=      5-min Rain = 0
KBWS 170856Z 03011KT 05/M01 A3015 RMK A01 T00481006  RH  068%=      5-min Rain = 0
KBWS 170857Z 04011KT 05/M01 A3015 RMK A01 T00491005  RH  068%=      5-min Rain = 0
KBWS 170858Z 03010KT 05/M01 A3015 RMK A01 T00491005  RH  068%=      5-min Rain = 0
KBWS 170859Z 04010KT 05/M01 A3015 RMK A01 T00491005  RH  068%=      5-min Rain = 0
KBWS 170900Z 03009KT 05/M01 A3016 RMK A01 T00491005  RH  068%=      5-min Rain = 0
KBWS 170901Z 03008KT 05/M01 A3016 RMK A01 T00491005  RH  068%=      5-min Rain = 0
KBWS 170902Z 03010KT 05/M01 A3016 RMK A01 T00491005  RH  068%=      5-min Rain = 0
KBWS 170903Z 03009KT 05/M01 A3016 RMK A01 T00491005  RH  068%=      5-min Rain = 0
KBWS 170904Z 03009KT 05/M01 A3016 RMK A01 T00491005  RH  068%=      5-min Rain = 0
KBWS 170905Z 03011KT 05/M01 A3016 RMK A01 T00491006  RH  068%=      5-min Rain = 0
KBWS 170906Z 02010KT 05/M01 A3016 RMK A01 T00491006  RH  068%=      5-min Rain = 0
KBWS 170907Z 02010KT 05/M01 A3016 RMK A01 T00491006  RH  068%=      5-min Rain = 0
KBWS 170908Z 03010KT 05/M01 A3016 RMK A01 T00491006  RH  068%=      5-min Rain = 0
KBWS 170909Z 03008KT 05/M01 A3016 RMK A01 T00491005  RH  068%=      5-min Rain = 0
KBWS 170910Z 02010KT 05/M00 A3016 RMK A01 T00491004  RH  068%=      5-min Rain = 0
KBWS 170911Z 03011KT 05/M01 A3016 RMK A01 T00491006  RH  068%=      5-min Rain = 0
KBWS 170912Z 03010KT 05/M01 A3016 RMK A01 T00491006  RH  068%=      5-min Rain = 0
KBWS 170913Z 03011KT 05/M01 A3016 RMK A01 T00491006  RH  068%=      5-min Rain = 0
KBWS 170914Z 03011KT 05/M01 A3016 RMK A01 T00491006  RH  068%=      5-min Rain = 0
KBWS 170915Z 02009KT 05/M01 A3016 RMK A01 T00491006  RH  068%=      5-min Rain = 0
KBWS 170916Z 02008KT 05/M01 A3017 RMK A01 T00491006  RH  068%=      5-min Rain = 0
KBWS 170917Z 03008KT 05/M01 A3017 RMK A01 T00491005  RH  068%=      5-min Rain = 0
KBWS 170918Z 02008KT 05/M01 A3017 RMK A01 T00491005  RH  068%=      5-min Rain = 0
KBWS 170919Z 02007KT 05/M01 A3017 RMK A01 T00491006  RH  068%=      5-min Rain = 0
KBWS 170920Z 02009KT 05/M01 A3017 RMK A01 T00491005  RH  068%=      5-min Rain = 0
KBWS 170921Z 02007KT 05/M01 A3017 RMK A01 T00491005  RH  068%=      5-min Rain = 0
KBWS 170922Z 02008KT 05/M00 A3017 RMK A01 T00491004  RH  069%=      5-min Rain = 0
KBWS 170923Z 02010KT 05/M01 A3017 RMK A01 T00491006  RH  068%=      5-min Rain = 0
KBWS 170924Z 02008KT 05/M01 A3017 RMK A01 T00491006  RH  068%=      5-min Rain = 0
KBWS 170925Z 02009KT 05/M01 A3017 RMK A01 T00491005  RH  068%=      5-min Rain = 0
KBWS 170926Z 02009KT 05/M01 A3017 RMK A01 T00491006  RH  068%=      5-min Rain = 0
KBWS 170927Z 02009KT 05/M01 A3017 RMK A01 T00491005  RH  068%=      5-min Rain = 0
KBWS 170928Z 01009KT 05/M01 A3017 RMK A01 T00491005  RH  068%=      5-min Rain = 0
KBWS 170929Z 02012KT 05/M01 A3017 RMK A01 T00491005  RH  068%=      5-min Rain = 0
KBWS 170930Z 02011KT 05/M01 A3017 RMK A01 T00491006  RH  068%=      5-min Rain = 0
KBWS 170931Z 02013KT 05/M01 A3017 RMK A01 T00491007  RH  067%=      5-min Rain = 0
KBWS 170932Z 02012KT 05/M01 A3017 RMK A01 T00491008  RH  067%=      5-min Rain = 0
KBWS 170933Z 02011KT 05/M01 A3017 RMK A01 T00491007  RH  067%=      5-min Rain = 0
KBWS 170934Z 02010KT 05/M01 A3017 RMK A01 T00491006  RH  068%=      5-min Rain = 0
KBWS 170935Z 02010KT 05/M01 A3017 RMK A01 T00491005  RH  068%=      5-min Rain = 0
KBWS 170936Z 02009KT 05/M01 A3017 RMK A01 T00491005  RH  068%=      5-min Rain = 0
KBWS 170937Z 02010KT 05/M01 A3017 RMK A01 T00481006  RH  068%=      5-min Rain = 0
KBWS 170938Z 02010G15KT 05/M01 A3017 RMK A01 T00481006  RH  068%=      5-min Rain = 0
KBWS 170939Z 02008KT 05/M01 A3017 RMK A01 T00481006  RH  068%=      5-min Rain = 0
KBWS 170940Z 02011KT 05/M01 A3017 RMK A01 T00481006  RH  068%=      5-min Rain = 0
KBWS 170941Z 01008KT 05/M01 A3017 RMK A01 T00481007  RH  068%=      5-min Rain = 0
KBWS 170942Z 02008KT 05/M01 A3017 RMK A01 T00481006  RH  068%=      5-min Rain = 0
KBWS 170943Z 01008KT 05/M01 A3017 RMK A01 T00481006  RH  068%=      5-min Rain = 0
KBWS 170944Z 01009KT 05/M01 A3017 RMK A01 T00491006  RH  068%=      5-min Rain = 0
KBWS 170945Z 02009KT 05/M01 A3017 RMK A01 T00491007  RH  067%=      5-min Rain = 0
KBWS 170946Z 02009KT 05/M01 A3017 RMK A01 T00491007  RH  067%=      5-min Rain = 0
KBWS 170947Z 02009KT 05/M01 A3016 RMK A01 T00491007  RH  067%=      5-min Rain = 0
KBWS 170948Z 02013KT 05/M01 A3016 RMK A01 T00491007  RH  067%=      5-min Rain = 0
KBWS 170949Z 02013KT 05/M01 A3016 RMK A01 T00491009  RH  066%=      5-min Rain = 0
KBWS 170950Z 02014KT 05/M01 A3016 RMK A01 T00481009  RH  066%=      5-min Rain = 0
KBWS 170951Z 02014KT 05/M01 A3016 RMK A01 T00481010  RH  066%=      5-min Rain = 0
KBWS 170952Z 02011KT 05/M01 A3016 RMK A01 T00481011  RH  066%=      5-min Rain = 0
KBWS 170953Z 02010KT 05/M01 A3016 RMK A01 T00481010  RH  066%=      5-min Rain = 0
KBWS 170954Z 03010KT 05/M01 A3016 RMK A01 T00481009  RH  066%=      5-min Rain = 0
KBWS 170955Z 02011KT 05/M01 A3017 RMK A01 T00481010  RH  066%=      5-min Rain = 0
KBWS 170956Z 02012KT 05/M01 A3017 RMK A01 T00481011  RH  066%=      5-min Rain = 0
KBWS 170957Z 02010KT 05/M01 A3017 RMK A01 T00481011  RH  066%=      5-min Rain = 0
KBWS 170958Z 02011KT 05/M01 A3017 RMK A01 T00481010  RH  066%=      5-min Rain = 0
KBWS 170959Z 02012KT 05/M01 A3017 RMK A01 T00481011  RH  066%=      5-min Rain = 0
KBWS 171000Z 02013KT 05/M01 A3017 RMK A01 T00481012  RH  065%=      5-min Rain = 0
KBWS 171001Z 02011KT 05/M01 A3017 RMK A01 T00481012  RH  065%=      5-min Rain = 0
KBWS 171002Z 02011KT 05/M01 A3017 RMK A01 T00481011  RH  065%=      5-min Rain = 0
KBWS 171003Z 02010KT 05/M01 A3017 RMK A01 T00481011  RH  065%=      5-min Rain = 0
KBWS 171004Z 02012KT 05/M01 A3017 RMK A01 T00481011  RH  066%=      5-min Rain = 0
KBWS 171005Z 02013KT 05/M01 A3017 RMK A01 T00481011  RH  065%=      5-min Rain = 0
KBWS 171006Z 02013KT 05/M01 A3017 RMK A01 T00481012  RH  065%=      5-min Rain = 0
KBWS 171007Z 03013KT 05/M01 A3017 RMK A01 T00481012  RH  065%=      5-min Rain = 0
KBWS 171008Z 02011KT 05/M01 A3017 RMK A01 T00481012  RH  065%=      5-min Rain = 0
KBWS 171009Z 02012KT 05/M01 A3017 RMK A01 T00481011  RH  066%=      5-min Rain = 0
KBWS 171010Z 02012KT 05/M01 A3017 RMK A01 T00481011  RH  065%=      5-min Rain = 0
KBWS 171011Z 03009KT 05/M01 A3017 RMK A01 T00481012  RH  065%=      5-min Rain = 0
KBWS 171012Z 03010KT 05/M01 A3017 RMK A01 T00481011  RH  066%=      5-min Rain = 0
KBWS 171013Z 03010KT 05/M01 A3017 RMK A01 T00481011  RH  066%=      5-min Rain = 0
KBWS 171014Z 02009KT 05/M01 A3017 RMK A01 T00481011  RH  066%=      5-min Rain = 0
KBWS 171015Z 03009KT 05/M01 A3018 RMK A01 T00481011  RH  066%=      5-min Rain = 0
KBWS 171016Z 03008KT 05/M01 A3018 RMK A01 T00481011  RH  066%=      5-min Rain = 0
KBWS 171017Z 03008KT 05/M01 A3018 RMK A01 T00481010  RH  066%=      5-min Rain = 0
KBWS 171018Z 02009KT 05/M01 A3018 RMK A01 T00481010  RH  066%=      5-min Rain = 0
KBWS 171019Z 02008KT 05/M01 A3018 RMK A01 T00481010  RH  066%=      5-min Rain = 0
KBWS 171020Z 03008KT 05/M01 A3018 RMK A01 T00481010  RH  066%=      5-min Rain = 0
KBWS 171021Z 02010KT 05/M01 A3018 RMK A01 T00481010  RH  066%=      5-min Rain = 0
KBWS 171022Z 02010KT 05/M01 A3018 RMK A01 T00481011  RH  066%=      5-min Rain = 0
KBWS 171023Z 02010KT 05/M01 A3018 RMK A01 T00471011  RH  066%=      5-min Rain = 0
KBWS 171024Z 02009KT 05/M01 A3018 RMK A01 T00471011  RH  066%=      5-min Rain = 0
KBWS 171025Z 02009KT 05/M01 A3018 RMK A01 T00471010  RH  066%=      5-min Rain = 0
KBWS 171026Z 03008KT 05/M01 A3018 RMK A01 T00471010  RH  066%=      5-min Rain = 0
KBWS 171027Z 03008KT 05/M01 A3018 RMK A01 T00471009  RH  067%=      5-min Rain = 0
KBWS 171028Z 03008KT 05/M01 A3018 RMK A01 T00471009  RH  067%=      5-min Rain = 0
KBWS 171029Z 02007KT 05/M01 A3018 RMK A01 T00471009  RH  067%=      5-min Rain = 0
KBWS 171030Z 02007KT 05/M01 A3018 RMK A01 T00471009  RH  067%=      5-min Rain = 0
KBWS 171031Z 02009KT 05/M01 A3018 RMK A01 T00471010  RH  067%=      5-min Rain = 0
KBWS 171032Z 02011KT 05/M01 A3018 RMK A01 T00471010  RH  067%=      5-min Rain = 0
KBWS 171033Z 01010KT 05/M01 A3018 RMK A01 T00471010  RH  067%=      5-min Rain = 0
KBWS 171034Z 01009KT 05/M01 A3018 RMK A01 T00471010  RH  067%=      5-min Rain = 0
KBWS 171035Z 01009KT 05/M01 A3018 RMK A01 T00471010  RH  067%=      5-min Rain = 0
KBWS 171036Z 02011KT 05/M01 A3018 RMK A01 T00471010  RH  067%=      5-min Rain = 0
KBWS 171037Z 02012KT 05/M01 A3018 RMK A01 T00471010  RH  066%=      5-min Rain = 0
KBWS 171038Z 02009KT 05/M01 A3018 RMK A01 T00471011  RH  066%=      5-min Rain = 0
KBWS 171039Z 02011KT 05/M01 A3018 RMK A01 T00471010  RH  067%=      5-min Rain = 0
KBWS 171040Z 03011KT 05/M01 A3018 RMK A01 T00471010  RH  067%=      5-min Rain = 0
KBWS 171041Z 02013KT 05/M01 A3018 RMK A01 T00471010  RH  067%=      5-min Rain = 0
KBWS 171042Z 02012KT 05/M01 A3018 RMK A01 T00471010  RH  067%=      5-min Rain = 0
KBWS 171043Z 02011KT 05/M01 A3018 RMK A01 T00471010  RH  067%=      5-min Rain = 0
KBWS 171044Z 02012KT 05/M01 A3018 RMK A01 T00471010  RH  067%=      5-min Rain = 0
KBWS 171045Z 02010KT 05/M01 A3018 RMK A01 T00461010  RH  067%=      5-min Rain = 0
KBWS 171046Z 02011KT 05/M01 A3019 RMK A01 T00461010  RH  067%=      5-min Rain = 0
KBWS 171047Z 02013KT 05/M01 A3019 RMK A01 T00461010  RH  067%=      5-min Rain = 0
KBWS 171048Z 02011KT 05/M01 A3019 RMK A01 T00461011  RH  066%=      5-min Rain = 0
KBWS 171049Z 02012KT 05/M01 A3019 RMK A01 T00461010  RH  067%=      5-min Rain = 0
KBWS 171050Z 02011KT 05/M01 A3019 RMK A01 T00461010  RH  067%=      5-min Rain = 0
KBWS 171051Z 02011KT 05/M01 A3019 RMK A01 T00461010  RH  067%=      5-min Rain = 0
KBWS 171052Z 02010KT 05/M01 A3019 RMK A01 T00461010  RH  067%=      5-min Rain = 0
KBWS 171053Z 02009KT 05/M01 A3019 RMK A01 T00461009  RH  067%=      5-min Rain = 0
KBWS 171054Z 02009KT 05/M01 A3019 RMK A01 T00461009  RH  067%=      5-min Rain = 0
KBWS 171055Z 02013KT 05/M01 A3018 RMK A01 T00461009  RH  067%=      5-min Rain = 0
KBWS 171056Z 02013KT 05/M01 A3018 RMK A01 T00461010  RH  067%=      5-min Rain = 0
KBWS 171057Z 02015KT 05/M01 A3018 RMK A01 T00461011  RH  067%=      5-min Rain = 0
KBWS 171058Z 02014KT 05/M01 A3018 RMK A01 T00451011  RH  067%=      5-min Rain = 0
KBWS 171059Z 03014KT 05/M01 A3018 RMK A01 T00451011  RH  067%=      5-min Rain = 0
KBWS 171100Z 02012KT 05/M01 A3018 RMK A01 T00451011  RH  067%=      5-min Rain = 0
KBWS 171101Z 02011KT 05/M01 A3018 RMK A01 T00451010  RH  067%=      5-min Rain = 0
KBWS 171102Z 02012KT 05/M01 A3018 RMK A01 T00451010  RH  067%=      5-min Rain = 0
KBWS 171103Z 02014KT 05/M01 A3018 RMK A01 T00451010  RH  067%=      5-min Rain = 0
KBWS 171104Z 03011KT 05/M01 A3018 RMK A01 T00451010  RH  067%=      5-min Rain = 0
KBWS 171105Z 03011KT 05/M01 A3018 RMK A01 T00451010  RH  068%=      5-min Rain = 0
KBWS 171106Z 02014KT 05/M01 A3018 RMK A01 T00451009  RH  068%=      5-min Rain = 0
KBWS 171107Z 02012KT 05/M01 A3018 RMK A01 T00451010  RH  068%=      5-min Rain = 0
KBWS 171108Z 02013KT 05/M01 A3018 RMK A01 T00451010  RH  068%=      5-min Rain = 0
KBWS 171109Z 02011KT 05/M01 A3019 RMK A01 T00451009  RH  068%=      5-min Rain = 0
KBWS 171110Z 03012KT 05/M01 A3018 RMK A01 T00451009  RH  068%=      5-min Rain = 0
KBWS 171111Z 02010KT 04/M01 A3019 RMK A01 T00441009  RH  068%=      5-min Rain = 0
KBWS 171112Z 03010KT 04/M01 A3019 RMK A01 T00441009  RH  068%=      5-min Rain = 0
KBWS 171113Z 03012KT 04/M01 A3019 RMK A01 T00441008  RH  068%=      5-min Rain = 0
KBWS 171114Z 03011KT 04/M01 A3019 RMK A01 T00441009  RH  068%=      5-min Rain = 0
KBWS 171115Z 02012KT 04/M01 A3019 RMK A01 T00441009  RH  068%=      5-min Rain = 0
KBWS 171116Z 02014KT 04/M01 A3019 RMK A01 T00441009  RH  068%=      5-min Rain = 0
KBWS 171117Z 03014KT 04/M01 A3019 RMK A01 T00441010  RH  068%=      5-min Rain = 0
KBWS 171118Z 02014KT 04/M01 A3019 RMK A01 T00441010  RH  068%=      5-min Rain = 0
KBWS 171119Z 02013KT 04/M01 A3019 RMK A01 T00441009  RH  068%=      5-min Rain = 0
KBWS 171120Z 02013KT 04/M01 A3019 RMK A01 T00441009  RH  069%=      5-min Rain = 0
KBWS 171121Z 03015KT 04/M01 A3019 RMK A01 T00441009  RH  069%=      5-min Rain = 0
KBWS 171122Z 02012KT 04/M01 A3019 RMK A01 T00431010  RH  068%=      5-min Rain = 0
KBWS 171123Z 03013KT 04/M01 A3019 RMK A01 T00431009  RH  069%=      5-min Rain = 0
KBWS 171124Z 03015KT 04/M01 A3019 RMK A01 T00431009  RH  069%=      5-min Rain = 0
KBWS 171125Z 03013KT 04/M01 A3019 RMK A01 T00431009  RH  069%=      5-min Rain = 0
KBWS 171126Z 02013KT 04/M01 A3019 RMK A01 T00431009  RH  069%=      5-min Rain = 0
KBWS 171127Z 03011KT 04/M01 A3019 RMK A01 T00431009  RH  069%=      5-min Rain = 0
KBWS 171128Z 03013KT 04/M01 A3019 RMK A01 T00431009  RH  069%=      5-min Rain = 0
KBWS 171129Z 03011KT 04/M01 A3019 RMK A01 T00431008  RH  069%=      5-min Rain = 0
KBWS 171130Z 03011KT 04/M01 A3019 RMK A01 T00431008  RH  069%=      5-min Rain = 0
KBWS 171131Z 03012KT 04/M01 A3019 RMK A01 T00431008  RH  069%=      5-min Rain = 0
KBWS 171132Z 03011KT 04/M01 A3019 RMK A01 T00431009  RH  069%=      5-min Rain = 0
KBWS 171133Z 03012KT 04/M01 A3019 RMK A01 T00431008  RH  069%=      5-min Rain = 0
KBWS 171134Z 03010KT 04/M01 A3019 RMK A01 T00431009  RH  069%=      5-min Rain = 0
KBWS 171135Z 02011KT 04/M01 A3019 RMK A01 T00431007  RH  070%=      5-min Rain = 0
KBWS 171136Z 02015G20KT 04/M01 A3019 RMK A01 T00431008  RH  069%=      5-min Rain = 0
KBWS 171137Z 02016KT 04/M01 A3019 RMK A01 T00431009  RH  069%=      5-min Rain = 0
KBWS 171138Z 03016KT 04/M01 A3019 RMK A01 T00421010  RH  069%=      5-min Rain = 0
KBWS 171139Z 02014KT 04/M01 A3019 RMK A01 T00421010  RH  069%=      5-min Rain = 0
KBWS 171140Z 03016KT 04/M01 A3019 RMK A01 T00421009  RH  069%=      5-min Rain = 0
KBWS 171141Z 02014KT 04/M01 A3019 RMK A01 T00421009  RH  069%=      5-min Rain = 0
KBWS 171142Z 02012KT 04/M01 A3019 RMK A01 T00421009  RH  069%=      5-min Rain = 0
KBWS 171143Z 03012KT 04/M01 A3019 RMK A01 T00421008  RH  070%=      5-min Rain = 0
KBWS 171144Z 02012KT 04/M01 A3019 RMK A01 T00421008  RH  070%=      5-min Rain = 0
KBWS 171145Z 03014KT 04/M01 A3019 RMK A01 T00421008  RH  070%=      5-min Rain = 0
KBWS 171146Z 02014KT 04/M01 A3019 RMK A01 T00421008  RH  070%=      5-min Rain = 0
KBWS 171147Z 03014KT 04/M01 A3019 RMK A01 T00421009  RH  069%=      5-min Rain = 0
KBWS 171148Z 03015KT 04/M01 A3019 RMK A01 T00421009  RH  069%=      5-min Rain = 0
KBWS 171149Z 02012KT 04/M01 A3019 RMK A01 T00411009  RH  070%=      5-min Rain = 0
KBWS 171150Z 02015KT 04/M01 A3019 RMK A01 T00411009  RH  070%=      5-min Rain = 0
KBWS 171151Z 02016KT 04/M01 A3019 RMK A01 T00411010  RH  069%=      5-min Rain = 0
KBWS 171152Z 02015KT 04/M01 A3019 RMK A01 T00411010  RH  069%=      5-min Rain = 0
KBWS 171153Z 03015KT 04/M01 A3019 RMK A01 T00411010  RH  070%=      5-min Rain = 0
KBWS 171154Z 03015KT 04/M01 A3019 RMK A01 T00411010  RH  070%=      5-min Rain = 0
KBWS 171155Z 02014KT 04/M01 A3019 RMK A01 T00411010  RH  070%=      5-min Rain = 0
KBWS 171156Z 02014KT 04/M01 A3019 RMK A01 T00411010  RH  070%=      5-min Rain = 0
KBWS 171157Z 02013KT 04/M01 A3019 RMK A01 T00411010  RH  069%=      5-min Rain = 0
KBWS 171158Z 02011KT 04/M01 A3019 RMK A01 T00411010  RH  070%=      5-min Rain = 0
KBWS 171159Z 02013KT 04/M01 A3019 RMK A01 T00411009  RH  070%=      5-min Rain = 0
KBWS 171200Z 02013KT 04/M01 A3019 RMK A01 T00411009  RH  070%=      5-min Rain = 0
KBWS 171201Z 02011KT 04/M01 A3019 RMK A01 T00411009  RH  070%=      5-min Rain = 0
KBWS 171202Z 02012KT 04/M01 A3019 RMK A01 T00411009  RH  070%=      5-min Rain = 0
KBWS 171203Z 02011KT 04/M01 A3019 RMK A01 T00411009  RH  070%=      5-min Rain = 0
KBWS 171204Z 03011KT 04/M01 A3019 RMK A01 T00411009  RH  070%=      5-min Rain = 0
KBWS 171205Z 03011G17KT 04/M01 A3019 RMK A01 T00411008  RH  070%=      5-min Rain = 0
KBWS 171206Z 03013KT 04/M01 A3019 RMK A01 T00411009  RH  070%=      5-min Rain = 0
KBWS 171207Z 02013KT 04/M01 A3019 RMK A01 T00401010  RH  070%=      5-min Rain = 0
KBWS 171208Z 03011KT 04/M01 A3019 RMK A01 T00401010  RH  070%=      5-min Rain = 0
KBWS 171209Z 03010KT 04/M01 A3019 RMK A01 T00401009  RH  070%=      5-min Rain = 0
KBWS 171210Z 02012KT 04/M01 A3019 RMK A01 T00401009  RH  070%=      5-min Rain = 0
KBWS 171211Z 03010KT 04/M01 A3019 RMK A01 T00401009  RH  070%=      5-min Rain = 0
KBWS 171212Z 03012KT 04/M01 A3019 RMK A01 T00401009  RH  070%=      5-min Rain = 0
KBWS 171213Z 03011KT 04/M01 A3019 RMK A01 T00401009  RH  070%=      5-min Rain = 0
KBWS 171214Z 02012KT 04/M01 A3019 RMK A01 T00401009  RH  070%=      5-min Rain = 0
KBWS 171215Z 03013KT 04/M01 A3019 RMK A01 T00401009  RH  070%=      5-min Rain = 0
KBWS 171216Z 03011KT 04/M01 A3019 RMK A01 T00401010  RH  070%=      5-min Rain = 0
KBWS 171217Z 03011KT 04/M01 A3019 RMK A01 T00401009  RH  070%=      5-min Rain = 0
KBWS 171218Z 04013KT 04/M01 A3019 RMK A01 T00401009  RH  070%=      5-min Rain = 0
KBWS 171219Z 03013KT 04/M01 A3019 RMK A01 T00401010  RH  070%=      5-min Rain = 0
KBWS 171220Z 03013KT 04/M01 A3019 RMK A01 T00401010  RH  070%=      5-min Rain = 0
KBWS 171221Z 03013KT 04/M01 A3019 RMK A01 T00391010  RH  070%=      5-min Rain = 0
KBWS 171222Z 03012KT 04/M01 A302 RMK A01 T00391010  RH  070%=      5-min Rain = 0
KBWS 171223Z 02013KT 04/M01 A302 RMK A01 T00391010  RH  070%=      5-min Rain = 0
KBWS 171224Z 02013KT 04/M01 A302 RMK A01 T00391010  RH  070%=      5-min Rain = 0
KBWS 171225Z 02011KT 04/M01 A302 RMK A01 T00391010  RH  070%=      5-min Rain = 0
KBWS 171226Z 02011KT 04/M01 A302 RMK A01 T00391010  RH  070%=      5-min Rain = 0
KBWS 171227Z 02010G15KT 04/M01 A302 RMK A01 T00391010  RH  070%=      5-min Rain = 0
KBWS 171228Z 02013KT 04/M01 A302 RMK A01 T00391009  RH  070%=      5-min Rain = 0
KBWS 171229Z 02011KT 04/M01 A302 RMK A01 T00391010  RH  070%=      5-min Rain = 0
KBWS 171230Z 02011KT 04/M01 A302 RMK A01 T00391009  RH  071%=      5-min Rain = 0
KBWS 171231Z 03012KT 04/M01 A302 RMK A01 T00391010  RH  070%=      5-min Rain = 0
KBWS 171232Z 02012KT 04/M01 A302 RMK A01 T00391010  RH  070%=      5-min Rain = 0
KBWS 171233Z 03012KT 04/M01 A302 RMK A01 T00391009  RH  070%=      5-min Rain = 0
KBWS 171234Z 03010KT 04/M01 A302 RMK A01 T00391010  RH  070%=      5-min Rain = 0
KBWS 171235Z 03009KT 04/M01 A302 RMK A01 T00391009  RH  071%=      5-min Rain = 0
KBWS 171236Z 03010KT 04/M01 A302 RMK A01 T00391009  RH  071%=      5-min Rain = 0
KBWS 171237Z 03011KT 04/M01 A302 RMK A01 T00391009  RH  071%=      5-min Rain = 0
KBWS 171238Z 03013KT 04/M01 A302 RMK A01 T00391009  RH  071%=      5-min Rain = 0
KBWS 171239Z 03012KT 04/M01 A302 RMK A01 T00391009  RH  071%=      5-min Rain = 0
KBWS 171240Z 02011KT 04/M01 A302 RMK A01 T00391009  RH  071%=      5-min Rain = 0
KBWS 171241Z 02012KT 04/M01 A302 RMK A01 T00391009  RH  071%=      5-min Rain = 0
KBWS 171242Z 02012KT 04/M01 A302 RMK A01 T00391009  RH  071%=      5-min Rain = 0
KBWS 171243Z 02011KT 04/M01 A302 RMK A01 T00391009  RH  071%=      5-min Rain = 0
KBWS 171244Z 01010KT 04/M01 A302 RMK A01 T00391009  RH  071%=      5-min Rain = 0
KBWS 171245Z 02008KT 04/M01 A302 RMK A01 T00391008  RH  071%=      5-min Rain = 0
KBWS 171246Z 02009KT 04/M01 A3021 RMK A01 T00391008  RH  072%=      5-min Rain = 0
KBWS 171247Z 02010KT 04/M01 A3021 RMK A01 T00391008  RH  071%=      5-min Rain = 0
KBWS 171248Z 01009KT 04/M01 A3021 RMK A01 T00391008  RH  071%=      5-min Rain = 0
KBWS 171249Z 02009KT 04/M01 A3021 RMK A01 T00391009  RH  071%=      5-min Rain = 0
KBWS 171250Z 01009KT 04/M01 A3021 RMK A01 T00381008  RH  072%=      5-min Rain = 0
KBWS 171251Z 02008KT 04/M01 A3022 RMK A01 T00391008  RH  072%=      5-min Rain = 0
KBWS 171252Z 01008KT 04/M01 A3022 RMK A01 T00391008  RH  072%=      5-min Rain = 0
KBWS 171253Z 01010KT 04/M01 A3022 RMK A01 T00391008  RH  071%=      5-min Rain = 0
KBWS 171254Z 02010KT 04/M01 A3022 RMK A01 T00391009  RH  071%=      5-min Rain = 0
KBWS 171255Z 02008KT 04/M01 A3022 RMK A01 T00391008  RH  071%=      5-min Rain = 0
KBWS 171256Z 02009KT 04/M01 A3022 RMK A01 T00391008  RH  071%=      5-min Rain = 0
KBWS 171257Z 02010KT 04/M01 A3022 RMK A01 T00391008  RH  071%=      5-min Rain = 0
KBWS 171258Z 02010KT 04/M01 A3022 RMK A01 T00391009  RH  071%=      5-min Rain = 0
KBWS 171259Z 01009KT 04/M01 A3022 RMK A01 T00391009  RH  071%=      5-min Rain = 0
KBWS 171300Z 02009KT 04/M01 A3022 RMK A01 T00391008  RH  071%=      5-min Rain = 0
KBWS 171301Z 02009KT 04/M01 A3022 RMK A01 T00391008  RH  071%=      5-min Rain = 0
KBWS 171302Z 01009KT 04/M01 A3022 RMK A01 T00391008  RH  071%=      5-min Rain = 0
KBWS 171303Z 01010KT 04/M01 A3022 RMK A01 T00391008  RH  071%=      5-min Rain = 0
KBWS 171304Z 02009KT 04/M01 A3022 RMK A01 T00391009  RH  071%=      5-min Rain = 0
KBWS 171305Z 01009KT 04/M01 A3022 RMK A01 T00391008  RH  071%=      5-min Rain = 0
KBWS 171306Z 01008KT 04/M01 A3022 RMK A01 T00391008  RH  071%=      5-min Rain = 0
KBWS 171307Z 01010KT 04/M01 A3022 RMK A01 T00391008  RH  071%=      5-min Rain = 0
KBWS 171308Z 01011KT 04/M01 A3022 RMK A01 T00391009  RH  071%=      5-min Rain = 0
KBWS 171309Z 01012KT 04/M01 A3022 RMK A01 T00391009  RH  071%=      5-min Rain = 0
KBWS 171310Z 01010KT 04/M01 A3022 RMK A01 T00391009  RH  071%=      5-min Rain = 0
KBWS 171311Z 01008KT 04/M01 A3022 RMK A01 T00391009  RH  071%=      5-min Rain = 0
KBWS 171312Z 02010KT 04/M01 A3022 RMK A01 T00401008  RH  071%=      5-min Rain = 0
KBWS 171313Z 01010KT 04/M01 A3022 RMK A01 T00401008  RH  071%=      5-min Rain = 0
KBWS 171314Z 01010KT 04/M01 A3022 RMK A01 T00401009  RH  071%=      5-min Rain = 0
KBWS 171315Z 02009KT 04/M01 A3022 RMK A01 T00401009  RH  071%=      5-min Rain = 0
KBWS 171316Z 02011KT 04/M01 A3022 RMK A01 T00401008  RH  071%=      5-min Rain = 0
KBWS 171317Z 02011KT 04/M01 A3022 RMK A01 T00401009  RH  071%=      5-min Rain = 0
KBWS 171318Z 02011KT 04/M01 A3022 RMK A01 T00401009  RH  071%=      5-min Rain = 0
KBWS 171319Z 02011KT 04/M01 A3022 RMK A01 T00401008  RH  071%=      5-min Rain = 0
KBWS 171320Z 01012KT 04/M01 A3021 RMK A01 T00401007  RH  071%=      5-min Rain = 0
KBWS 171321Z 01012KT 04/M01 A3021 RMK A01 T00401008  RH  071%=      5-min Rain = 0
KBWS 171322Z 00012KT 04/M01 A3021 RMK A01 T00401009  RH  071%=      5-min Rain = 0
KBWS 171323Z 01012KT 04/M01 A3021 RMK A01 T00391008  RH  071%=      5-min Rain = 0
KBWS 171324Z 01011KT 04/M01 A3021 RMK A01 T00401008  RH  071%=      5-min Rain = 0
KBWS 171325Z 02013KT 04/M01 A3021 RMK A01 T00401008  RH  071%=      5-min Rain = 0
KBWS 171326Z 02015KT 04/M01 A3021 RMK A01 T00401009  RH  071%=      5-min Rain = 0
KBWS 171327Z 02013KT 04/M01 A3022 RMK A01 T00401009  RH  070%=      5-min Rain = 0
KBWS 171328Z 02015KT 04/M01 A3021 RMK A01 T00391009  RH  071%=      5-min Rain = 0
KBWS 171329Z 02013KT 04/M01 A3021 RMK A01 T00391009  RH  071%=      5-min Rain = 0
KBWS 171330Z 02012KT 04/M01 A3021 RMK A01 T00391009  RH  071%=      5-min Rain = 0
KBWS 171331Z 01011KT 04/M01 A3021 RMK A01 T00401009  RH  071%=      5-min Rain = 0
KBWS 171332Z 02013KT 04/M01 A3021 RMK A01 T00401010  RH  070%=      5-min Rain = 0
KBWS 171333Z 02013KT 04/M01 A3021 RMK A01 T00401010  RH  070%=      5-min Rain = 0
KBWS 171334Z 02013KT 04/M01 A3021 RMK A01 T00401010  RH  070%=      5-min Rain = 0
KBWS 171335Z 02015KT 04/M01 A3021 RMK A01 T00401010  RH  070%=      5-min Rain = 0
KBWS 171336Z 02015G20KT 04/M01 A3021 RMK A01 T00401010  RH  070%=      5-min Rain = 0
KBWS 171337Z 02016KT 04/M01 A3021 RMK A01 T00401010  RH  070%=      5-min Rain = 0
KBWS 171338Z 02015KT 04/M01 A3021 RMK A01 T00401011  RH  070%=      5-min Rain = 0
KBWS 171339Z 02015KT 04/M01 A3021 RMK A01 T00401010  RH  070%=      5-min Rain = 0
KBWS 171340Z 02014KT 04/M01 A3021 RMK A01 T00401010  RH  070%=      5-min Rain = 0
KBWS 171341Z 02014KT 04/M01 A3021 RMK A01 T00401010  RH  070%=      5-min Rain = 0
KBWS 171342Z 01013G18KT 04/M01 A3021 RMK A01 T00401010  RH  070%=      5-min Rain = 0
KBWS 171343Z 02013KT 04/M01 A3021 RMK A01 T00401009  RH  070%=      5-min Rain = 0
KBWS 171344Z 02014KT 04/M01 A3021 RMK A01 T00401010  RH  070%=      5-min Rain = 0
KBWS 171345Z 02014KT 04/M01 A3021 RMK A01 T00401010  RH  070%=      5-min Rain = 0
KBWS 171346Z 02014KT 04/M01 A3021 RMK A01 T00401010  RH  070%=      5-min Rain = 0
KBWS 171347Z 02015KT 04/M01 A3021 RMK A01 T00401009  RH  070%=      5-min Rain = 0
KBWS 171348Z 02014KT 04/M01 A3021 RMK A01 T00401010  RH  070%=      5-min Rain = 0
KBWS 171349Z 02015KT 04/M01 A3021 RMK A01 T00401010  RH  070%=      5-min Rain = 0
KBWS 171350Z 02012KT 04/M01 A3021 RMK A01 T00401009  RH  070%=      5-min Rain = 0
KBWS 171351Z 02012KT 04/M01 A3022 RMK A01 T00411009  RH  070%=      5-min Rain = 0
KBWS 171352Z 02014KT 04/M01 A3022 RMK A01 T00411009  RH  070%=      5-min Rain = 0
KBWS 171353Z 02014KT 04/M01 A3022 RMK A01 T00411010  RH  069%=      5-min Rain = 0
KBWS 171354Z 02016KT 04/M01 A3022 RMK A01 T00411010  RH  069%=      5-min Rain = 0
KBWS 171355Z 02016KT 04/M01 A3022 RMK A01 T00411010  RH  069%=      5-min Rain = 0
KBWS 171356Z 02015KT 04/M01 A3022 RMK A01 T00411011  RH  069%=      5-min Rain = 0
KBWS 171357Z 02015KT 04/M01 A3022 RMK A01 T00401011  RH  069%=      5-min Rain = 0
KBWS 171358Z 02015KT 04/M01 A3022 RMK A01 T00401011  RH  069%=      5-min Rain = 0
KBWS 171359Z 02013KT 04/M01 A3022 RMK A01 T00401011  RH  069%=      5-min Rain = 0
KBWS 171400Z 02011KT 04/M01 A3022 RMK A01 T00401010  RH  070%=      5-min Rain = 0
KBWS 171401Z 03012G17KT 04/M01 A3022 RMK A01 T00411009  RH  070%=      5-min Rain = 0
KBWS 171402Z 02014KT 04/M01 A3022 RMK A01 T00421011  RH  069%=      5-min Rain = 0
KBWS 171403Z 02014KT 04/M01 A3022 RMK A01 T00421011  RH  069%=      5-min Rain = 0
KBWS 171404Z 02014KT 04/M01 A3022 RMK A01 T00421010  RH  069%=      5-min Rain = 0
KBWS 171405Z 02013KT 04/M01 A3022 RMK A01 T00421010  RH  069%=      5-min Rain = 0
KBWS 171406Z 02013KT 04/M01 A3022 RMK A01 T00421010  RH  069%=      5-min Rain = 0
KBWS 171407Z 02013KT 04/M01 A3022 RMK A01 T00421009  RH  069%=      5-min Rain = 0
KBWS 171408Z 03014KT 04/M01 A3022 RMK A01 T00421010  RH  069%=      5-min Rain = 0
KBWS 171409Z 03015KT 04/M01 A3022 RMK A01 T00421010  RH  069%=      5-min Rain = 0
KBWS 171410Z 03012KT 04/M01 A3022 RMK A01 T00421010  RH  069%=      5-min Rain = 0
KBWS 171411Z 03012G17KT 04/M01 A3022 RMK A01 T00431009  RH  069%=      5-min Rain = 0
KBWS 171412Z 03013KT 04/M01 A3022 RMK A01 T00441009  RH  068%=      5-min Rain = 0
KBWS 171413Z 03016KT 04/M01 A3021 RMK A01 T00441009  RH  068%=      5-min Rain = 0
KBWS 171414Z 03016KT 04/M01 A3021 RMK A01 T00441011  RH  068%=      5-min Rain = 0
KBWS 171415Z 03017KT 04/M01 A3021 RMK A01 T00431011  RH  068%=      5-min Rain = 0
KBWS 171416Z 03015G20KT 04/M01 A3021 RMK A01 T00421012  RH  068%=      5-min Rain = 0
KBWS 171417Z 03015KT 04/M01 A3021 RMK A01 T00421011  RH  068%=      5-min Rain = 0
KBWS 171418Z 03016G21KT 04/M01 A3021 RMK A01 T00431011  RH  068%=      5-min Rain = 0
KBWS 171419Z 03016KT 04/M01 A3021 RMK A01 T00431011  RH  068%=      5-min Rain = 0
KBWS 171420Z 03015KT 04/M01 A3021 RMK A01 T00431012  RH  068%=      5-min Rain = 0
KBWS 171421Z 04014KT 04/M01 A3021 RMK A01 T00431010  RH  068%=      5-min Rain = 0
KBWS 171422Z 04015KT 04/M01 A3021 RMK A01 T00441010  RH  068%=      5-min Rain = 0
KBWS 171423Z 04014KT 04/M01 A3021 RMK A01 T00431011  RH  068%=      5-min Rain = 0
KBWS 171424Z 03015KT 04/M01 A3021 RMK A01 T00431011  RH  068%=      5-min Rain = 0
KBWS 171425Z 03016KT 04/M01 A3021 RMK A01 T00441012  RH  067%=      5-min Rain = 0
KBWS 171426Z 03017KT 04/M01 A3021 RMK A01 T00431012  RH  067%=      5-min Rain = 0
KBWS 171427Z 03016KT 04/M01 A3021 RMK A01 T00431012  RH  068%=      5-min Rain = 0
KBWS 171428Z 03016KT 04/M01 A3021 RMK A01 T00431011  RH  068%=      5-min Rain = 0
KBWS 171429Z 03014KT 04/M01 A3021 RMK A01 T00441011  RH  068%=      5-min Rain = 0
KBWS 171430Z 03014KT 04/M01 A3021 RMK A01 T00441011  RH  068%=      5-min Rain = 0
KBWS 171431Z 03015G20KT 05/M01 A3021 RMK A01 T00451010  RH  068%=      5-min Rain = 0
KBWS 171432Z 03017KT 05/M01 A3021 RMK A01 T00451012  RH  067%=      5-min Rain = 0
KBWS 171433Z 03013G18KT 04/M01 A3021 RMK A01 T00441011  RH  067%=      5-min Rain = 0
KBWS 171434Z 04015KT 05/M01 A3021 RMK A01 T00451010  RH  068%=      5-min Rain = 0
KBWS 171435Z 03016KT 05/M01 A3021 RMK A01 T00451011  RH  067%=      5-min Rain = 0
KBWS 171436Z 03015KT 04/M01 A3021 RMK A01 T00441011  RH  067%=      5-min Rain = 0
KBWS 171437Z 03016KT 04/M01 A3021 RMK A01 T00441011  RH  067%=      5-min Rain = 0
KBWS 171438Z 03015KT 04/M01 A3021 RMK A01 T00441012  RH  067%=      5-min Rain = 0
KBWS 171439Z 03017KT 04/M01 A3021 RMK A01 T00441012  RH  067%=      5-min Rain = 0
KBWS 171440Z 03015KT 04/M01 A3021 RMK A01 T00441012  RH  067%=      5-min Rain = 0
KBWS 171441Z 03015KT 04/M01 A3021 RMK A01 T00441011  RH  067%=      5-min Rain = 0
KBWS 171442Z 03016KT 05/M01 A3021 RMK A01 T00451011  RH  067%=      5-min Rain = 0
KBWS 171443Z 03014KT 05/M01 A3021 RMK A01 T00451011  RH  067%=      5-min Rain = 0
KBWS 171444Z 03014KT 05/M01 A3021 RMK A01 T00451011  RH  067%=      5-min Rain = 0
KBWS 171445Z 02014G19KT 05/M01 A3021 RMK A01 T00451011  RH  067%=      5-min Rain = 0
KBWS 171446Z 03016KT 05/M01 A3021 RMK A01 T00451012  RH  067%=      5-min Rain = 0
KBWS 171447Z 03013KT 05/M01 A3021 RMK A01 T00451012  RH  066%=      5-min Rain = 0
KBWS 171448Z 03014KT 05/M01 A3021 RMK A01 T00461011  RH  066%=      5-min Rain = 0
KBWS 171449Z 03013KT 05/M01 A3021 RMK A01 T00471012  RH  066%=      5-min Rain = 0
KBWS 171450Z 03013KT 05/M01 A3021 RMK A01 T00461012  RH  066%=      5-min Rain = 0
KBWS 171451Z 04014KT 05/M01 A3021 RMK A01 T00471012  RH  066%=      5-min Rain = 0
KBWS 171452Z 03015KT 05/M01 A3021 RMK A01 T00471012  RH  066%=      5-min Rain = 0
KBWS 171453Z 03014KT 05/M01 A3021 RMK A01 T00471012  RH  066%=      5-min Rain = 0
KBWS 171454Z 02015KT 05/M01 A3021 RMK A01 T00471012  RH  066%=      5-min Rain = 0
KBWS 171455Z 04012KT 05/M01 A3022 RMK A01 T00471012  RH  066%=      5-min Rain = 0
KBWS 171456Z 04014KT 05/M01 A3021 RMK A01 T00471010  RH  067%=      5-min Rain = 0
KBWS 171457Z 04015KT 05/M01 A3021 RMK A01 T00481011  RH  066%=      5-min Rain = 0
KBWS 171458Z 04016KT 05/M01 A3021 RMK A01 T00481011  RH  066%=      5-min Rain = 0
KBWS 171459Z 04014KT 05/M01 A3021 RMK A01 T00471012  RH  065%=      5-min Rain = 0
KBWS 171500Z 05014KT 05/M01 A3021 RMK A01 T00471012  RH  066%=      5-min Rain = 0
KBWS 171501Z 04014KT 05/M01 A3022 RMK A01 T00471011  RH  066%=      5-min Rain = 0
KBWS 171502Z 03013KT 05/M01 A3022 RMK A01 T00471011  RH  066%=      5-min Rain = 0
KBWS 171503Z 02013KT 05/M01 A3022 RMK A01 T00481011  RH  066%=      5-min Rain = 0
KBWS 171504Z 03013KT 05/M01 A3022 RMK A01 T00491010  RH  066%=      5-min Rain = 0
KBWS 171505Z 03013KT 05/M01 A3022 RMK A01 T00491011  RH  065%=      5-min Rain = 0
KBWS 171506Z 02014KT 05/M01 A3022 RMK A01 T00501012  RH  065%=      5-min Rain = 0
KBWS 171507Z 02014KT 05/M01 A3022 RMK A01 T00491012  RH  065%=      5-min Rain = 0
KBWS 171508Z 03011KT 05/M01 A3022 RMK A01 T00491011  RH  065%=      5-min Rain = 0
KBWS 171509Z 03012KT 05/M01 A3022 RMK A01 T00501010  RH  065%=      5-min Rain = 0
KBWS 171510Z 04012KT 05/M01 A3022 RMK A01 T00501011  RH  064%=      5-min Rain = 0
KBWS 171511Z 05010KT 05/M01 A3022 RMK A01 T00501012  RH  064%=      5-min Rain = 0
KBWS 171512Z 04011KT 05/M01 A3022 RMK A01 T00491010  RH  065%=      5-min Rain = 0
KBWS 171513Z 04011KT 05/M01 A3022 RMK A01 T00511009  RH  065%=      5-min Rain = 0
KBWS 171514Z 03012KT 05/M01 A3022 RMK A01 T00521011  RH  064%=      5-min Rain = 0
KBWS 171515Z 04013KT 05/M01 A3022 RMK A01 T00511011  RH  064%=      5-min Rain = 0
KBWS 171516Z 04013KT 05/M01 A3022 RMK A01 T00521011  RH  064%=      5-min Rain = 0
KBWS 171517Z 04011KT 05/M01 A3022 RMK A01 T00521011  RH  064%=      5-min Rain = 0
KBWS 171518Z 05011G16KT 05/M01 A3022 RMK A01 T00521011  RH  064%=      5-min Rain = 0
KBWS 171519Z 04012KT 05/M01 A3022 RMK A01 T00521011  RH  064%=      5-min Rain = 0
KBWS 171520Z 04012KT 05/M01 A3022 RMK A01 T00521012  RH  063%=      5-min Rain = 0
KBWS 171521Z 04012KT 05/M01 A3022 RMK A01 T00521010  RH  064%=      5-min Rain = 0
KBWS 171522Z 05013KT 05/M01 A3022 RMK A01 T00541010  RH  063%=      5-min Rain = 0
KBWS 171523Z 05012KT 05/M01 A3022 RMK A01 T00541011  RH  063%=      5-min Rain = 0
KBWS 171524Z 05012KT 05/M01 A3022 RMK A01 T00531010  RH  064%=      5-min Rain = 0
KBWS 171525Z 04013KT 05/M01 A3022 RMK A01 T00531010  RH  064%=      5-min Rain = 0
KBWS 171526Z 02013KT 05/M01 A3022 RMK A01 T00531011  RH  063%=      5-min Rain = 0
KBWS 171527Z 02013KT 06/M01 A3022 RMK A01 T00551011  RH  062%=      5-min Rain = 0
KBWS 171528Z 03013KT 05/M01 A3022 RMK A01 T00541013  RH  062%=      5-min Rain = 0
KBWS 171529Z 04010KT 05/M01 A3022 RMK A01 T00531013  RH  062%=      5-min Rain = 0
KBWS 171530Z 03009KT 05/M01 A3022 RMK A01 T00531011  RH  063%=      5-min Rain = 0
KBWS 171531Z 01011KT 06/M01 A3022 RMK A01 T00561010  RH  063%=      5-min Rain = 0
KBWS 171532Z 01011KT 06/M01 A3022 RMK A01 T00551014  RH  061%=      5-min Rain = 0
KBWS 171533Z 03009KT 05/M01 A3023 RMK A01 T00531014  RH  062%=      5-min Rain = 0
KBWS 171534Z 03012KT 05/M01 A3023 RMK A01 T00541011  RH  063%=      5-min Rain = 0
KBWS 171535Z 03011KT 06/M01 A3023 RMK A01 T00551012  RH  062%=      5-min Rain = 0
KBWS 171536Z 04009KT 05/M01 A3023 RMK A01 T00541012  RH  063%=      5-min Rain = 0
KBWS 171537Z 04008KT 05/M01 A3023 RMK A01 T00541012  RH  062%=      5-min Rain = 0
KBWS 171538Z 02012KT 05/M01 A3022 RMK A01 T00541011  RH  063%=      5-min Rain = 0
KBWS 171539Z 03011KT 06/M01 A3022 RMK A01 T00551012  RH  062%=      5-min Rain = 0
KBWS 171540Z 02011G17KT 06/M01 A3022 RMK A01 T00561012  RH  062%=      5-min Rain = 0
KBWS 171541Z 01013KT 06/M02 A3022 RMK A01 T00561015  RH  060%=      5-min Rain = 0
KBWS 171542Z 02014KT 06/M02 A3022 RMK A01 T00551015  RH  060%=      5-min Rain = 0
KBWS 171543Z 02013KT 06/M02 A3023 RMK A01 T00561015  RH  060%=      5-min Rain = 0
KBWS 171544Z 03014KT 06/M02 A3023 RMK A01 T00551015  RH  061%=      5-min Rain = 0
KBWS 171545Z 03013KT 06/M01 A3023 RMK A01 T00551014  RH  061%=      5-min Rain = 0
KBWS 171546Z 03010KT 05/M01 A3023 RMK A01 T00541014  RH  061%=      5-min Rain = 0
KBWS 171547Z 03011KT 06/M01 A3023 RMK A01 T00551014  RH  061%=      5-min Rain = 0
KBWS 171548Z 03012KT 06/M01 A3023 RMK A01 T00571014  RH  060%=      5-min Rain = 0
KBWS 171549Z 03011G17KT 06/M01 A3023 RMK A01 T00571014  RH  060%=      5-min Rain = 0
KBWS 171550Z 02013KT 06/M01 A3023 RMK A01 T00581013  RH  060%=      5-min Rain = 0
KBWS 171551Z 03011KT 06/M01 A3023 RMK A01 T00571014  RH  060%=      5-min Rain = 0
KBWS 171552Z 03009KT 06/M02 A3023 RMK A01 T00551015  RH  061%=      5-min Rain = 0
KBWS 171553Z 02011KT 06/M01 A3023 RMK A01 T00551014  RH  061%=      5-min Rain = 0
KBWS 171554Z 02011KT 06/M02 A3023 RMK A01 T00551015  RH  061%=      5-min Rain = 0
KBWS 171555Z 02013KT 06/M01 A3023 RMK A01 T00561013  RH  061%=      5-min Rain = 0
KBWS 171556Z 03013KT 06/M01 A3023 RMK A01 T00581013  RH  060%=      5-min Rain = 0
KBWS 171557Z 02013KT 06/M01 A3023 RMK A01 T00581013  RH  060%=      5-min Rain = 0
KBWS 171558Z 02012KT 06/M02 A3023 RMK A01 T00581015  RH  059%=      5-min Rain = 0
KBWS 171559Z 02010G15KT 06/M02 A3023 RMK A01 T00571015  RH  060%=      5-min Rain = 0
KBWS 171600Z 02014KT 06/M01 A3023 RMK A01 T00571014  RH  060%=      5-min Rain = 0
KBWS 171601Z 02014KT 06/M01 A3023 RMK A01 T00581014  RH  060%=      5-min Rain = 0
KBWS 171602Z 02012KT 06/M02 A3023 RMK A01 T00581015  RH  059%=      5-min Rain = 0
KBWS 171603Z 01012KT 06/M01 A3023 RMK A01 T00581014  RH  060%=      5-min Rain = 0
KBWS 171604Z 02012KT 06/M02 A3023 RMK A01 T00581016  RH  059%=      5-min Rain = 0
KBWS 171605Z 02012G17KT 06/M02 A3023 RMK A01 T00571016  RH  059%=      5-min Rain = 0
KBWS 171606Z 01012G18KT 06/M02 A3023 RMK A01 T00581015  RH  059%=      5-min Rain = 0
KBWS 171607Z 02013KT 06/M01 A3023 RMK A01 T00611013  RH  059%=      5-min Rain = 0
KBWS 171608Z 02014KT 06/M02 A3023 RMK A01 T00611017  RH  057%=      5-min Rain = 0
KBWS 171609Z 02015KT 06/M02 A3023 RMK A01 T00601017  RH  058%=      5-min Rain = 0
KBWS 171610Z 02010KT 06/M02 A3023 RMK A01 T00591017  RH  058%=      5-min Rain = 0
KBWS 171611Z 03009KT 06/M02 A3023 RMK A01 T00591016  RH  059%=      5-min Rain = 0
KBWS 171612Z 03012KT 06/M01 A3023 RMK A01 T00601014  RH  059%=      5-min Rain = 0
KBWS 171613Z 03013G18KT 06/M02 A3023 RMK A01 T00621015  RH  058%=      5-min Rain = 0
KBWS 171614Z 03012G17KT 07/M01 A3023 RMK A01 T00651014  RH  057%=      5-min Rain = 0
KBWS 171615Z 02013G18KT 07/M02 A3023 RMK A01 T00661016  RH  056%=      5-min Rain = 0
KBWS 171616Z 01012KT 07/M02 A3023 RMK A01 T00651016  RH  056%=      5-min Rain = 0
KBWS 171617Z 02011KT 06/M02 A3023 RMK A01 T00641016  RH  056%=      5-min Rain = 0
KBWS 171618Z 04012KT 07/M02 A3023 RMK A01 T00661015  RH  056%=      5-min Rain = 0
KBWS 171619Z 03010KT 07/M02 A3023 RMK A01 T00661018  RH  055%=      5-min Rain = 0
KBWS 171620Z 04014KT 07/M02 A3023 RMK A01 T00661016  RH  056%=      5-min Rain = 0
KBWS 171621Z 03013KT 07/M02 A3023 RMK A01 T00651016  RH  056%=      5-min Rain = 0
KBWS 171622Z 02012KT 07/M02 A3023 RMK A01 T00651015  RH  056%=      5-min Rain = 0
KBWS 171623Z 04013KT 07/M01 A3022 RMK A01 T00671014  RH  056%=      5-min Rain = 0
KBWS 171624Z 03013KT 07/M02 A3022 RMK A01 T00681016  RH  055%=      5-min Rain = 0
KBWS 171625Z 02014KT 07/M02 A3022 RMK A01 T00651019  RH  055%=      5-min Rain = 0
KBWS 171626Z 02012KT 07/M02 A3023 RMK A01 T00651019  RH  055%=      5-min Rain = 0
KBWS 171627Z 02011KT 07/M02 A3023 RMK A01 T00651017  RH  056%=      5-min Rain = 0
KBWS 171628Z 03013KT 07/M02 A3022 RMK A01 T00681015  RH  055%=      5-min Rain = 0
KBWS 171629Z 02009KT 07/M02 A3022 RMK A01 T00681018  RH  054%=      5-min Rain = 0
KBWS 171630Z 04011KT 06/M02 A3022 RMK A01 T00641020  RH  055%=      5-min Rain = 0
KBWS 171631Z 04010G16KT 06/M02 A3022 RMK A01 T00641018  RH  056%=      5-min Rain = 0
KBWS 171632Z 02012KT 07/M02 A3022 RMK A01 T00671015  RH  056%=      5-min Rain = 0
KBWS 171633Z 04012KT 07/M02 A3022 RMK A01 T00701015  RH  055%=      5-min Rain = 0
KBWS 171634Z 04014KT 07/M02 A3022 RMK A01 T00721015  RH  054%=      5-min Rain = 0
KBWS 171635Z 04012KT 07/M02 A3023 RMK A01 T00701019  RH  053%=      5-min Rain = 0
KBWS 171636Z 04011KT 07/M02 A3023 RMK A01 T00671018  RH  054%=      5-min Rain = 0
KBWS 171637Z 03009KT 07/M02 A3023 RMK A01 T00671017  RH  055%=      5-min Rain = 0
KBWS 171638Z 02013G19KT 07/M01 A3023 RMK A01 T00701014  RH  055%=      5-min Rain = 0
KBWS 171639Z 02013KT 07/M02 A3023 RMK A01 T00711016  RH  054%=      5-min Rain = 0
KBWS 171640Z 01013KT 07/M02 A3023 RMK A01 T00711017  RH  053%=      5-min Rain = 0
KBWS 171641Z 01011KT 07/M02 A3023 RMK A01 T00701018  RH  053%=      5-min Rain = 0
KBWS 171642Z 02008KT 07/M02 A3023 RMK A01 T00691019  RH  054%=      5-min Rain = 0
KBWS 171643Z 01011KT 07/M02 A3023 RMK A01 T00671019  RH  054%=      5-min Rain = 0
KBWS 171644Z 02009KT 07/M02 A3023 RMK A01 T00681016  RH  055%=      5-min Rain = 0
KBWS 171645Z 03011KT 07/M02 A3023 RMK A01 T00701016  RH  055%=      5-min Rain = 0
KBWS 171646Z 01009KT 07/M02 A3023 RMK A01 T00691017  RH  054%=      5-min Rain = 0
KBWS 171647Z 02009KT 07/M02 A3023 RMK A01 T00671019  RH  054%=      5-min Rain = 0
KBWS 171648Z 04009G15KT 07/M02 A3023 RMK A01 T00651018  RH  055%=      5-min Rain = 0
KBWS 171649Z 02012KT 07/M02 A3023 RMK A01 T00671015  RH  056%=      5-min Rain = 0
KBWS 171650Z 01009KT 07/M02 A3023 RMK A01 T00661017  RH  055%=      5-min Rain = 0
KBWS 171651Z 01010KT 06/M02 A3023 RMK A01 T00641017  RH  056%=      5-min Rain = 0
KBWS 171652Z 01011KT 06/M02 A3023 RMK A01 T00631016  RH  057%=      5-min Rain = 0
KBWS 171653Z 01011KT 06/M02 A3023 RMK A01 T00641016  RH  057%=      5-min Rain = 0
KBWS 171654Z 01009KT 06/M02 A3023 RMK A01 T00641017  RH  056%=      5-min Rain = 0
KBWS 171655Z 36010KT 06/M02 A3023 RMK A01 T00641017  RH  056%=      5-min Rain = 0
KBWS 171656Z 35010KT 07/M02 A3023 RMK A01 T00651017  RH  056%=      5-min Rain = 0
KBWS 171657Z 01010KT 07/M02 A3023 RMK A01 T00661018  RH  055%=      5-min Rain = 0
KBWS 171658Z 03012KT 07/M02 A3023 RMK A01 T00671016  RH  055%=      5-min Rain = 0
KBWS 171659Z 03009KT 07/M02 A3023 RMK A01 T00681018  RH  054%=      5-min Rain = 0
KBWS 171700Z 02009KT 07/M02 A3023 RMK A01 T00671017  RH  055%=      5-min Rain = 0
KBWS 171701Z 04011G16KT 07/M02 A3023 RMK A01 T00691016  RH  055%=      5-min Rain = 0
KBWS 171702Z 03010G17KT 07/M02 A3023 RMK A01 T00691018  RH  054%=      5-min Rain = 0
KBWS 171703Z 05009KT 07/M02 A3023 RMK A01 T00671020  RH  054%=      5-min Rain = 0
KBWS 171704Z 04009KT 07/M02 A3023 RMK A01 T00651020  RH  054%=      5-min Rain = 0
KBWS 171705Z 05008KT 07/M02 A3023 RMK A01 T00661017  RH  055%=      5-min Rain = 0
KBWS 171706Z 05011KT 07/M02 A3022 RMK A01 T00671016  RH  055%=      5-min Rain = 0
KBWS 171707Z 04010KT 07/M02 A3022 RMK A01 T00661018  RH  055%=      5-min Rain = 0
KBWS 171708Z 04011KT 07/M02 A3022 RMK A01 T00651018  RH  055%=      5-min Rain = 0
KBWS 171709Z 04011G17KT 07/M02 A3022 RMK A01 T00651019  RH  055%=      5-min Rain = 0
KBWS 171710Z 02010KT 07/M02 A3022 RMK A01 T00651018  RH  055%=      5-min Rain = 0
KBWS 171711Z 03007KT 07/M02 A3022 RMK A01 T00661018  RH  055%=      5-min Rain = 0
KBWS 171712Z 04006KT 07/M02 A3022 RMK A01 T00671016  RH  055%=      5-min Rain = 0
KBWS 171713Z 02010G15KT 07/M02 A3022 RMK A01 T00671018  RH  055%=      5-min Rain = 0
KBWS 171714Z 02011G16KT 07/M02 A3022 RMK A01 T00671019  RH  054%=      5-min Rain = 0
KBWS 171715Z 03013KT 07/M02 A3022 RMK A01 T00691018  RH  054%=      5-min Rain = 0
KBWS 171716Z 03013KT 07/M02 A3022 RMK A01 T00691020  RH  053%=      5-min Rain = 0
KBWS 171717Z 02012KT 07/M02 A3022 RMK A01 T00681021  RH  053%=      5-min Rain = 0
KBWS 171718Z 02012KT 07/M02 A3022 RMK A01 T00671022  RH  053%=      5-min Rain = 0
KBWS 171719Z 02011KT 07/M02 A3022 RMK A01 T00661022  RH  054%=      5-min Rain = 0
KBWS 171720Z 04011KT 07/M02 A3021 RMK A01 T00661020  RH  054%=      5-min Rain = 0
KBWS 171721Z 04010KT 07/M02 A3021 RMK A01 T00671019  RH  054%=      5-min Rain = 0
KBWS 171722Z 04009KT 07/M02 A3021 RMK A01 T00671018  RH  055%=      5-min Rain = 0
KBWS 171723Z 02010KT 07/M02 A3021 RMK A01 T00671017  RH  055%=      5-min Rain = 0
KBWS 171724Z 03010KT 07/M02 A3021 RMK A01 T00671018  RH  055%=      5-min Rain = 0
KBWS 171725Z 04011KT 07/M02 A3021 RMK A01 T00691017  RH  054%=      5-min Rain = 0
KBWS 171726Z 04013KT 07/M02 A3021 RMK A01 T00701017  RH  054%=      5-min Rain = 0
KBWS 171727Z 03008KT 07/M02 A3021 RMK A01 T00701020  RH  053%=      5-min Rain = 0
KBWS 171728Z 04008KT 07/M02 A3021 RMK A01 T00681018  RH  054%=      5-min Rain = 0
KBWS 171729Z 04008KT 07/M02 A3021 RMK A01 T00711016  RH  054%=      5-min Rain = 0
KBWS 171730Z 02009KT 07/M02 A3021 RMK A01 T00731016  RH  053%=      5-min Rain = 0
KBWS 171731Z 03009KT 07/M02 A3021 RMK A01 T00741018  RH  052%=      5-min Rain = 0
KBWS 171732Z 01008KT 07/M02 A3021 RMK A01 T00731019  RH  052%=      5-min Rain = 0
KBWS 171733Z 01007KT 07/M02 A3021 RMK A01 T00711021  RH  052%=      5-min Rain = 0
KBWS 171734Z 04010KT 07/M02 A3021 RMK A01 T00711018  RH  053%=      5-min Rain = 0
KBWS 171735Z 02011KT 07/M02 A3021 RMK A01 T00721020  RH  052%=      5-min Rain = 0
KBWS 171736Z 02007KT 07/M02 A3022 RMK A01 T00701019  RH  053%=      5-min Rain = 0
KBWS 171737Z 01010KT 07/M02 A3022 RMK A01 T00721017  RH  053%=      5-min Rain = 0
KBWS 171738Z 01010KT 07/M02 A3022 RMK A01 T00721021  RH  052%=      5-min Rain = 0
KBWS 171739Z 02010KT 07/M02 A3022 RMK A01 T00701022  RH  052%=      5-min Rain = 0
KBWS 171740Z 01009KT 07/M02 A3022 RMK A01 T00701023  RH  051%=      5-min Rain = 0
KBWS 171741Z 03008KT 07/M02 A3022 RMK A01 T00701021  RH  052%=      5-min Rain = 0
KBWS 171742Z 02009KT 07/M02 A3022 RMK A01 T00711020  RH  052%=      5-min Rain = 0
KBWS 171743Z 03009KT 07/M02 A3022 RMK A01 T00711020  RH  052%=      5-min Rain = 0
KBWS 171744Z 03008KT 07/M02 A3021 RMK A01 T00711020  RH  052%=      5-min Rain = 0
KBWS 171745Z 04007KT 07/M02 A3021 RMK A01 T00711021  RH  052%=      5-min Rain = 0
KBWS 171746Z 04007KT 07/M02 A3021 RMK A01 T00711020  RH  052%=      5-min Rain = 0
KBWS 171747Z 02009G14KT 07/M02 A3021 RMK A01 T00721019  RH  053%=      5-min Rain = 0
KBWS 171748Z 01011KT 07/M02 A3021 RMK A01 T00741019  RH  052%=      5-min Rain = 0
KBWS 171749Z 02011KT 07/M02 A3021 RMK A01 T00741021  RH  051%=      5-min Rain = 0
KBWS 171750Z 02011KT 07/M02 A3021 RMK A01 T00741022  RH  051%=      5-min Rain = 0
KBWS 171751Z 02011KT 07/M02 A3021 RMK A01 T00741021  RH  051%=      5-min Rain = 0
KBWS 171752Z 02011KT 07/M02 A3022 RMK A01 T00731023  RH  050%=      5-min Rain = 0
KBWS 171753Z 02009KT 07/M02 A3022 RMK A01 T00731023  RH  051%=      5-min Rain = 0
KBWS 171754Z 01009KT 07/M02 A3021 RMK A01 T00721024  RH  050%=      5-min Rain = 0
KBWS 171755Z 01007KT 07/M03 A3021 RMK A01 T00721026  RH  050%=      5-min Rain = 0
KBWS 171756Z 02006KT 07/M03 A3021 RMK A01 T00721026  RH  050%=      5-min Rain = 0
KBWS 171757Z 02005KT 07/M03 A3021 RMK A01 T00721026  RH  050%=      5-min Rain = 0
KBWS 171758Z 03003KT 07/M02 A3021 RMK A01 T00721024  RH  050%=      5-min Rain = 0
KBWS 171759Z 02004KT 07/M02 A3021 RMK A01 T00711024  RH  051%=      5-min Rain = 0
KBWS 171800Z 02005KT 07/M02 A3021 RMK A01 T00711023  RH  051%=      5-min Rain = 0
KBWS 171801Z 01006G11KT 07/M02 A3021 RMK A01 T00721021  RH  052%=      5-min Rain = 0
KBWS 171802Z 02009KT 08/M02 A3021 RMK A01 T00751020  RH  051%=      5-min Rain = 0
KBWS 171803Z 01007KT 08/M02 A3021 RMK A01 T00751023  RH  050%=      5-min Rain = 0
KBWS 171804Z 04008KT 07/M02 A3021 RMK A01 T00741023  RH  050%=      5-min Rain = 0
KBWS 171805Z 05011KT 08/M02 A3021 RMK A01 T00751019  RH  051%=      5-min Rain = 0
KBWS 171806Z 06011KT 08/M02 A3021 RMK A01 T00751021  RH  051%=      5-min Rain = 0
KBWS 171807Z 05009KT 07/M02 A3021 RMK A01 T00741021  RH  051%=      5-min Rain = 0
KBWS 171808Z 01008KT 07/M02 A3021 RMK A01 T00741022  RH  050%=      5-min Rain = 0
KBWS 171809Z 01007KT 08/M02 A3021 RMK A01 T00761022  RH  050%=      5-min Rain = 0
KBWS 171810Z 02005KT 08/M02 A3021 RMK A01 T00761022  RH  050%=      5-min Rain = 0
KBWS 171811Z 02007KT 08/M02 A3021 RMK A01 T00781020  RH  050%=      5-min Rain = 0
KBWS 171812Z 03010KT 08/M02 A3021 RMK A01 T00781021  RH  049%=      5-min Rain = 0
KBWS 171813Z 02010KT 08/M02 A3021 RMK A01 T00781022  RH  049%=      5-min Rain = 0
KBWS 171814Z 02010KT 08/M02 A302 RMK A01 T00781023  RH  049%=      5-min Rain = 0
KBWS 171815Z 04012KT 08/M02 A302 RMK A01 T00771023  RH  049%=      5-min Rain = 0
KBWS 171816Z 04011KT 08/M02 A302 RMK A01 T00791023  RH  049%=      5-min Rain = 0
KBWS 171817Z 03010KT 08/M03 A302 RMK A01 T00771026  RH  048%=      5-min Rain = 0
KBWS 171818Z 02010KT 08/M03 A302 RMK A01 T00751026  RH  049%=      5-min Rain = 0
KBWS 171819Z 02010KT 08/M02 A302 RMK A01 T00761024  RH  049%=      5-min Rain = 0
KBWS 171820Z 02008KT 08/M02 A302 RMK A01 T00771024  RH  049%=      5-min Rain = 0
KBWS 171821Z 01006KT 08/M03 A302 RMK A01 T00771025  RH  048%=      5-min Rain = 0
KBWS 171822Z 36007KT 08/M03 A302 RMK A01 T00761025  RH  049%=      5-min Rain = 0
KBWS 171823Z 00006KT 08/M03 A302 RMK A01 T00751025  RH  049%=      5-min Rain = 0
KBWS 171824Z 01004KT 07/M02 A302 RMK A01 T00741024  RH  050%=      5-min Rain = 0
KBWS 171825Z 03006KT 07/M02 A302 RMK A01 T00741023  RH  050%=      5-min Rain = 0
KBWS 171826Z 04006KT 08/M02 A302 RMK A01 T00751023  RH  050%=      5-min Rain = 0
KBWS 171827Z 05008KT 08/M02 A302 RMK A01 T00751022  RH  050%=      5-min Rain = 0
KBWS 171828Z 05009KT 08/M02 A302 RMK A01 T00751023  RH  050%=      5-min Rain = 0
KBWS 171829Z 05010G16KT 08/M02 A302 RMK A01 T00751022  RH  050%=      5-min Rain = 0
KBWS 171830Z 01010KT 08/M02 A302 RMK A01 T00781020  RH  050%=      5-min Rain = 0
KBWS 171831Z 00008KT 08/M02 A302 RMK A01 T00791024  RH  048%=      5-min Rain = 0
KBWS 171832Z 01008KT 08/M02 A302 RMK A01 T00791022  RH  049%=      5-min Rain = 0
KBWS 171833Z 36009G16KT 08/M02 A3019 RMK A01 T00811021  RH  048%=      5-min Rain = 0
KBWS 171834Z 04011G18KT 08/M02 A3019 RMK A01 T00821022  RH  048%=      5-min Rain = 0
KBWS 171835Z 05010KT 08/M02 A3019 RMK A01 T00821021  RH  048%=      5-min Rain = 0
KBWS 171836Z 06010KT 08/M02 A3019 RMK A01 T00811020  RH  049%=      5-min Rain = 0
KBWS 171837Z 06008KT 08/M02 A3019 RMK A01 T00801021  RH  049%=      5-min Rain = 0
KBWS 171838Z 06008KT 08/M02 A3019 RMK A01 T00781022  RH  049%=      5-min Rain = 0
KBWS 171839Z 06008KT 08/M02 A3019 RMK A01 T00781021  RH  050%=      5-min Rain = 0
KBWS 171840Z 06006KT 08/M02 A3019 RMK A01 T00781019  RH  050%=      5-min Rain = 0
KBWS 171841Z 06007G12KT 08/M02 A3019 RMK A01 T00791019  RH  050%=      5-min Rain = 0
KBWS 171842Z 04011KT 08/M02 A3019 RMK A01 T00801022  RH  049%=      5-min Rain = 0
KBWS 171843Z 03011KT 08/M02 A3019 RMK A01 T00801021  RH  049%=      5-min Rain = 0
KBWS 171844Z 02008KT 08/M02 A3019 RMK A01 T00811022  RH  048%=      5-min Rain = 0
KBWS 171845Z 02008KT 08/M02 A3019 RMK A01 T00791023  RH  048%=      5-min Rain = 0
KBWS 171846Z 01006KT 08/M02 A3019 RMK A01 T00781023  RH  049%=      5-min Rain = 0
KBWS 171847Z 35006KT 08/M02 A3019 RMK A01 T00781022  RH  049%=      5-min Rain = 0
KBWS 171848Z 35006KT 08/M02 A3019 RMK A01 T00791021  RH  049%=      5-min Rain = 0
KBWS 171849Z 00007KT 08/M02 A3019 RMK A01 T00811019  RH  049%=      5-min Rain = 0
KBWS 171850Z 04009KT 08/M02 A3019 RMK A01 T00831018  RH  049%=      5-min Rain = 0
KBWS 171851Z 04007KT 09/M02 A3019 RMK A01 T00851017  RH  049%=      5-min Rain = 0
KBWS 171852Z 05008KT 09/M02 A3019 RMK A01 T00871020  RH  047%=      5-min Rain = 0
KBWS 171853Z 04009KT 09/M02 A3018 RMK A01 T00881018  RH  047%=      5-min Rain = 0
KBWS 171854Z 04011KT 09/M02 A3018 RMK A01 T00901021  RH  046%=      5-min Rain = 0
KBWS 171855Z 04009KT 09/M02 A3018 RMK A01 T00911022  RH  045%=      5-min Rain = 0
KBWS 171856Z 02008KT 09/M02 A3018 RMK A01 T00911023  RH  045%=      5-min Rain = 0
KBWS 171857Z 02008KT 09/M02 A3018 RMK A01 T00911024  RH  044%=      5-min Rain = 0
KBWS 171858Z 04008G13KT 09/M02 A3018 RMK A01 T00911022  RH  045%=      5-min Rain = 0
KBWS 171859Z 04012G18KT 09/M02 A3018 RMK A01 T00911021  RH  045%=      5-min Rain = 0
KBWS 171900Z 02010KT 09/M02 A3019 RMK A01 T00931019  RH  045%=      5-min Rain = 0
KBWS 171901Z 01008KT 09/M02 A3019 RMK A01 T00931020  RH  045%=      5-min Rain = 0
KBWS 171902Z 02007KT 09/M02 A3018 RMK A01 T00921019  RH  046%=      5-min Rain = 0
KBWS 171903Z 05007KT 10/M01 A3018 RMK A01 T00951014  RH  047%=      5-min Rain = 0
KBWS 171904Z 07009KT 10/M02 A3018 RMK A01 T00981016  RH  045%=      5-min Rain = 0
KBWS 171905Z 08008KT 09/M02 A3018 RMK A01 T00921024  RH  044%=      5-min Rain = 0
KBWS 171906Z 06009KT 09/M02 A3018 RMK A01 T00881023  RH  046%=      5-min Rain = 0
KBWS 171907Z 06011KT 09/M02 A3018 RMK A01 T00881018  RH  047%=      5-min Rain = 0
KBWS 171908Z 06011KT 09/M02 A3018 RMK A01 T00901018  RH  047%=      5-min Rain = 0
KBWS 171909Z 05007KT 09/M02 A3018 RMK A01 T00901021  RH  046%=      5-min Rain = 0
KBWS 171910Z 03008KT 09/M02 A3018 RMK A01 T00891022  RH  046%=      5-min Rain = 0
KBWS 171911Z 00010KT 09/M02 A3018 RMK A01 T00911019  RH  046%=      5-min Rain = 0
KBWS 171912Z 35007KT 09/M02 A3018 RMK A01 T00941022  RH  044%=      5-min Rain = 0
KBWS 171913Z 35007KT 09/M02 A3018 RMK A01 T00921024  RH  044%=      5-min Rain = 0
KBWS 171914Z 03012G18KT 09/M02 A3018 RMK A01 T00911023  RH  045%=      5-min Rain = 0
KBWS 171915Z 02014KT 09/M02 A3018 RMK A01 T00901022  RH  045%=      5-min Rain = 0
KBWS 171916Z 02010KT 09/M02 A3018 RMK A01 T00901023  RH  045%=      5-min Rain = 0
KBWS 171917Z 03009KT 09/M02 A3018 RMK A01 T00891023  RH  045%=      5-min Rain = 0
KBWS 171918Z 04010KT 09/M02 A3018 RMK A01 T00891024  RH  045%=      5-min Rain = 0
KBWS 171919Z 02013KT 09/M02 A3018 RMK A01 T00901022  RH  045%=      5-min Rain = 0
KBWS 171920Z 02011KT 09/M02 A3018 RMK A01 T00911022  RH  045%=      5-min Rain = 0
KBWS 171921Z 01010KT 09/M03 A3018 RMK A01 T00911025  RH  044%=      5-min Rain = 0
KBWS 171922Z 03009KT 09/M03 A3018 RMK A01 T00881025  RH  045%=      5-min Rain = 0
KBWS 171923Z 02007KT 09/M03 A3017 RMK A01 T00891025  RH  045%=      5-min Rain = 0
KBWS 171924Z 03005KT 09/M03 A3017 RMK A01 T00871026  RH  045%=      5-min Rain = 0
KBWS 171925Z 02010G16KT 09/M02 A3017 RMK A01 T00871024  RH  045%=      5-min Rain = 0
KBWS 171926Z 03013KT 09/M02 A3017 RMK A01 T00901020  RH  046%=      5-min Rain = 0
KBWS 171927Z 03013KT 09/M02 A3017 RMK A01 T00921020  RH  045%=      5-min Rain = 0
KBWS 171928Z 02011KT 09/M02 A3017 RMK A01 T00921022  RH  045%=      5-min Rain = 0
KBWS 171929Z 02010KT 09/M02 A3017 RMK A01 T00911023  RH  045%=      5-min Rain = 0
KBWS 171930Z 01010KT 09/M02 A3018 RMK A01 T00901023  RH  045%=      5-min Rain = 0
KBWS 171931Z 02010KT 09/M02 A3018 RMK A01 T00921023  RH  044%=      5-min Rain = 0
KBWS 171932Z 05007KT 09/M03 A3018 RMK A01 T00911026  RH  044%=      5-min Rain = 0
KBWS 171933Z 03006KT 09/M03 A3018 RMK A01 T00891026  RH  044%=      5-min Rain = 0
KBWS 171934Z 01006KT 09/M03 A3018 RMK A01 T00891025  RH  045%=      5-min Rain = 0
KBWS 171935Z 01009KT 09/M02 A3018 RMK A01 T00891022  RH  045%=      5-min Rain = 0
KBWS 171936Z 00010KT 09/M02 A3018 RMK A01 T00921021  RH  045%=      5-min Rain = 0
KBWS 171937Z 35008KT 09/M02 A3018 RMK A01 T00901023  RH  045%=      5-min Rain = 0
KBWS 171938Z 02008KT 09/M02 A3018 RMK A01 T00891021  RH  046%=      5-min Rain = 0
KBWS 171939Z 04010KT 09/M02 A3018 RMK A01 T00911021  RH  045%=      5-min Rain = 0
KBWS 171940Z 04010KT 09/M02 A3018 RMK A01 T00921024  RH  044%=      5-min Rain = 0
KBWS 171941Z 04007KT 09/M03 A3018 RMK A01 T00901026  RH  044%=      5-min Rain = 0
KBWS 171942Z 04007KT 09/M02 A3018 RMK A01 T00891024  RH  045%=      5-min Rain = 0
KBWS 171943Z 02007KT 09/M03 A3018 RMK A01 T00911025  RH  044%=      5-min Rain = 0
KBWS 171944Z 03008KT 09/M03 A3018 RMK A01 T00901025  RH  044%=      5-min Rain = 0
KBWS 171945Z 04007KT 09/M02 A3018 RMK A01 T00911022  RH  045%=      5-min Rain = 0
KBWS 171946Z 02007KT 09/M02 A3018 RMK A01 T00921023  RH  044%=      5-min Rain = 0
KBWS 171947Z 04007KT 09/M03 A3018 RMK A01 T00891026  RH  044%=      5-min Rain = 0
KBWS 171948Z 02009KT 09/M03 A3018 RMK A01 T00881025  RH  045%=      5-min Rain = 0
KBWS 171949Z 01007KT 09/M02 A3018 RMK A01 T00881024  RH  045%=      5-min Rain = 0
KBWS 171950Z 00008KT 09/M03 A3018 RMK A01 T00881025  RH  045%=      5-min Rain = 0
KBWS 171951Z 01007KT 09/M02 A3018 RMK A01 T00871024  RH  046%=      5-min Rain = 0
KBWS 171952Z 01007KT 09/M02 A3018 RMK A01 T00891023  RH  045%=      5-min Rain = 0
KBWS 171953Z 01006G11KT 09/M03 A3018 RMK A01 T00881025  RH  045%=      5-min Rain = 0
KBWS 171954Z 02011KT 09/M02 A3018 RMK A01 T00881023  RH  046%=      5-min Rain = 0
KBWS 171955Z 02012KT 09/M02 A3018 RMK A01 T00891024  RH  045%=      5-min Rain = 0
KBWS 171956Z 03009KT 09/M02 A3018 RMK A01 T00891023  RH  045%=      5-min Rain = 0
KBWS 171957Z 04007KT 09/M02 A3017 RMK A01 T00901024  RH  045%=      5-min Rain = 0
KBWS 171958Z 03007KT 09/M02 A3017 RMK A01 T00891022  RH  045%=      5-min Rain = 0
KBWS 171959Z 36010KT 09/M02 A3017 RMK A01 T00911021  RH  045%=      5-min Rain = 0
KBWS 172000Z 00009KT 09/M02 A3017 RMK A01 T00921023  RH  044%=      5-min Rain = 0
KBWS 172001Z 01008KT 09/M02 A3017 RMK A01 T00921022  RH  045%=      5-min Rain = 0
KBWS 172002Z 00008KT 09/M02 A3017 RMK A01 T00941022  RH  044%=      5-min Rain = 0
KBWS 172003Z 00006KT 09/M03 A3017 RMK A01 T00921025  RH  044%=      5-min Rain = 0
KBWS 172004Z 00005KT 09/M03 A3017 RMK A01 T00901026  RH  044%=      5-min Rain = 0
KBWS 172005Z 01009KT 09/M02 A3017 RMK A01 T00891024  RH  045%=      5-min Rain = 0
KBWS 172006Z 02012KT 09/M02 A3017 RMK A01 T00921022  RH  045%=      5-min Rain = 0
KBWS 172007Z 02009KT 09/M03 A3017 RMK A01 T00941025  RH  043%=      5-min Rain = 0
KBWS 172008Z 03008KT 09/M02 A3017 RMK A01 T00931024  RH  044%=      5-min Rain = 0
KBWS 172009Z 05008KT 10/M02 A3017 RMK A01 T00951022  RH  044%=      5-min Rain = 0
KBWS 172010Z 03009KT 10/M02 A3017 RMK A01 T00951022  RH  044%=      5-min Rain = 0
KBWS 172011Z 02010KT 10/M02 A3017 RMK A01 T00951024  RH  043%=      5-min Rain = 0
KBWS 172012Z 01008KT 09/M03 A3017 RMK A01 T00941027  RH  043%=      5-min Rain = 0
KBWS 172013Z 02008KT 09/M03 A3017 RMK A01 T00931027  RH  043%=      5-min Rain = 0
KBWS 172014Z 02008KT 09/M03 A3017 RMK A01 T00921026  RH  043%=      5-min Rain = 0
KBWS 172015Z 03010G18KT 09/M02 A3017 RMK A01 T00941023  RH  044%=      5-min Rain = 0
KBWS 172016Z 03010G15KT 10/M02 A3017 RMK A01 T00981021  RH  043%=      5-min Rain = 0
KBWS 172017Z 04011KT 10/M02 A3017 RMK A01 T00991024  RH  042%=      5-min Rain = 0
KBWS 172018Z 04008G14KT 10/M03 A3017 RMK A01 T00961028  RH  042%=      5-min Rain = 0
KBWS 172019Z 03008KT 09/M03 A3016 RMK A01 T00931028  RH  043%=      5-min Rain = 0
KBWS 172020Z 04007KT 09/M03 A3016 RMK A01 T00941026  RH  043%=      5-min Rain = 0
KBWS 172021Z 03006KT 10/M03 A3016 RMK A01 T00951026  RH  043%=      5-min Rain = 0
KBWS 172022Z 01008KT 10/M02 A3016 RMK A01 T00971024  RH  043%=      5-min Rain = 0
KBWS 172023Z 04008KT 10/M02 A3016 RMK A01 T00981023  RH  043%=      5-min Rain = 0
KBWS 172024Z 04006KT 10/M02 A3016 RMK A01 T01001020  RH  043%=      5-min Rain = 0
KBWS 172025Z 01008KT 10/M02 A3016 RMK A01 T01031019  RH  042%=      5-min Rain = 0
KBWS 172026Z 02008KT 10/M02 A3016 RMK A01 T01041022  RH  041%=      5-min Rain = 0
KBWS 172027Z 01008G13KT 10/M02 A3016 RMK A01 T01021023  RH  042%=      5-min Rain = 0
KBWS 172028Z 01009KT 10/M02 A3016 RMK A01 T01021022  RH  042%=      5-min Rain = 0
KBWS 172029Z 01006KT 10/M02 A3017 RMK A01 T01001024  RH  042%=      5-min Rain = 0
KBWS 172030Z 03006KT 10/M02 A3017 RMK A01 T00991023  RH  042%=      5-min Rain = 0
KBWS 172031Z 04005G10KT 10/M02 A3017 RMK A01 T00971024  RH  043%=      5-min Rain = 0
KBWS 172032Z 01004KT 10/M02 A3017 RMK A01 T00961023  RH  043%=      5-min Rain = 0
KBWS 172033Z 02004KT 10/M02 A3017 RMK A01 T00971022  RH  043%=      5-min Rain = 0
KBWS 172034Z 05005KT 10/M02 A3017 RMK A01 T00981020  RH  043%=      5-min Rain = 0
KBWS 172035Z 06006KT 10/M02 A3017 RMK A01 T01001020  RH  043%=      5-min Rain = 0
KBWS 172036Z 06005KT 10/M02 A3017 RMK A01 T00991022  RH  043%=      5-min Rain = 0
KBWS 172037Z 05009KT 10/M02 A3017 RMK A01 T00991019  RH  044%=      5-min Rain = 0
KBWS 172038Z 02008KT 10/M02 A3017 RMK A01 T01011020  RH  043%=      5-min Rain = 0
KBWS 172039Z 03007KT 10/M02 A3016 RMK A01 T01021020  RH  042%=      5-min Rain = 0
KBWS 172040Z 04008KT 10/M02 A3016 RMK A01 T01021021  RH  042%=      5-min Rain = 0
KBWS 172041Z 04009KT 10/M02 A3016 RMK A01 T01021020  RH  043%=      5-min Rain = 0
KBWS 172042Z 06008KT 10/M02 A3016 RMK A01 T01041018  RH  043%=      5-min Rain = 0
KBWS 172043Z 06007KT 10/M02 A3016 RMK A01 T01031019  RH  042%=      5-min Rain = 0
KBWS 172044Z 04009KT 10/M02 A3016 RMK A01 T01011021  RH  042%=      5-min Rain = 0
KBWS 172045Z 03010KT 10/M02 A3016 RMK A01 T01011022  RH  042%=      5-min Rain = 0
KBWS 172046Z 03008KT 10/M02 A3016 RMK A01 T01011023  RH  042%=      5-min Rain = 0
KBWS 172047Z 04010KT 10/M02 A3016 RMK A01 T01001023  RH  042%=      5-min Rain = 0
KBWS 172048Z 03009KT 10/M03 A3016 RMK A01 T01011025  RH  041%=      5-min Rain = 0
KBWS 172049Z 03008KT 10/M03 A3016 RMK A01 T00991026  RH  042%=      5-min Rain = 0
KBWS 172050Z 01009KT 10/M02 A3016 RMK A01 T00991024  RH  042%=      5-min Rain = 0
KBWS 172051Z 01009KT 10/M02 A3016 RMK A01 T00991024  RH  042%=      5-min Rain = 0
KBWS 172052Z 02008KT 10/M03 A3016 RMK A01 T00971025  RH  042%=      5-min Rain = 0
KBWS 172053Z 03007KT 10/M02 A3016 RMK A01 T00971023  RH  043%=      5-min Rain = 0
KBWS 172054Z 02005KT 10/M02 A3015 RMK A01 T00971022  RH  043%=      5-min Rain = 0
KBWS 172055Z 01006KT 10/M02 A3015 RMK A01 T00991021  RH  043%=      5-min Rain = 0
KBWS 172056Z 04009KT 10/M02 A3015 RMK A01 T00991024  RH  042%=      5-min Rain = 0
KBWS 172057Z 04010KT 10/M03 A3015 RMK A01 T00981025  RH  042%=      5-min Rain = 0
KBWS 172058Z 05009KT 10/M03 A3015 RMK A01 T00981026  RH  041%=      5-min Rain = 0
KBWS 172059Z 06008KT 10/M03 A3015 RMK A01 T00981027  RH  042%=      5-min Rain = 0
KBWS 172100Z 07008KT 10/M03 A3015 RMK A01 T00971028  RH  041%=      5-min Rain = 0
KBWS 172101Z 07006KT 10/M03 A3015 RMK A01 T00961028  RH  042%=      5-min Rain = 0
KBWS 172102Z 06006KT 10/M03 A3015 RMK A01 T00961027  RH  042%=      5-min Rain = 0
KBWS 172103Z 05006KT 10/M03 A3015 RMK A01 T00971025  RH  042%=      5-min Rain = 0
KBWS 172104Z 06007KT 10/M03 A3015 RMK A01 T00971026  RH  042%=      5-min Rain = 0
KBWS 172105Z 05008KT 10/M02 A3015 RMK A01 T00971024  RH  042%=      5-min Rain = 0
KBWS 172106Z 05005KT 10/M02 A3015 RMK A01 T00981024  RH  042%=      5-min Rain = 0
KBWS 172107Z 04007KT 10/M02 A3015 RMK A01 T00981023  RH  043%=      5-min Rain = 0
KBWS 172108Z 02012KT 10/M02 A3015 RMK A01 T01001021  RH  043%=      5-min Rain = 0
KBWS 172109Z 03009KT 10/M03 A3015 RMK A01 T01011025  RH  041%=      5-min Rain = 0
KBWS 172110Z 02008KT 10/M03 A3015 RMK A01 T00981027  RH  042%=      5-min Rain = 0
KBWS 172111Z 04010KT 10/M02 A3015 RMK A01 T00971024  RH  043%=      5-min Rain = 0
KBWS 172112Z 05010KT 10/M02 A3015 RMK A01 T00991023  RH  042%=      5-min Rain = 0
KBWS 172113Z 04007KT 10/M03 A3015 RMK A01 T00981026  RH  042%=      5-min Rain = 0
KBWS 172114Z 02007KT 10/M03 A3015 RMK A01 T00961026  RH  042%=      5-min Rain = 0
KBWS 172115Z 35009KT 10/M03 A3015 RMK A01 T00961027  RH  042%=      5-min Rain = 0
KBWS 172116Z 01009KT 10/M03 A3015 RMK A01 T00961030  RH  041%=      5-min Rain = 0
KBWS 172117Z 01007KT 10/M03 A3015 RMK A01 T00961029  RH  041%=      5-min Rain = 0
KBWS 172118Z 00009KT 10/M03 A3015 RMK A01 T00961026  RH  042%=      5-min Rain = 0
KBWS 172119Z 36008KT 10/M03 A3015 RMK A01 T00961025  RH  042%=      5-min Rain = 0
KBWS 172120Z 35010KT 10/M02 A3014 RMK A01 T00981024  RH  042%=      5-min Rain = 0
KBWS 172121Z 00011KT 10/M03 A3014 RMK A01 T00981025  RH  042%=      5-min Rain = 0
KBWS 172122Z 01008KT 10/M03 A3014 RMK A01 T00981026  RH  042%=      5-min Rain = 0
KBWS 172123Z 00008KT 10/M03 A3014 RMK A01 T00971025  RH  042%=      5-min Rain = 0
KBWS 172124Z 01009KT 10/M03 A3014 RMK A01 T00981025  RH  042%=      5-min Rain = 0
KBWS 172125Z 03007KT 10/M03 A3014 RMK A01 T00991025  RH  042%=      5-min Rain = 0
KBWS 172126Z 03008KT 10/M02 A3014 RMK A01 T01001024  RH  042%=      5-min Rain = 0
KBWS 172127Z 03007KT 10/M02 A3014 RMK A01 T01011024  RH  041%=      5-min Rain = 0
KBWS 172128Z 03008KT 11/M02 A3014 RMK A01 T01051021  RH  041%=      5-min Rain = 0
KBWS 172129Z 03009KT 11/M02 A3014 RMK A01 T01061024  RH  040%=      5-min Rain = 0
KBWS 172130Z 03009KT 11/M03 A3014 RMK A01 T01051026  RH  040%=      5-min Rain = 0
KBWS 172131Z 03011KT 11/M03 A3014 RMK A01 T01051026  RH  040%=      5-min Rain = 0
KBWS 172132Z 04008KT 10/M03 A3014 RMK A01 T01031028  RH  040%=      5-min Rain = 0
KBWS 172133Z 06006KT 10/M03 A3014 RMK A01 T01011029  RH  040%=      5-min Rain = 0
KBWS 172134Z 05005KT 10/M03 A3014 RMK A01 T01001028  RH  041%=      5-min Rain = 0
KBWS 172135Z 02008KT 10/M03 A3014 RMK A01 T01001026  RH  041%=      5-min Rain = 0
KBWS 172136Z 02005KT 10/M03 A3014 RMK A01 T01011026  RH  041%=      5-min Rain = 0
KBWS 172137Z 03008KT 10/M03 A3014 RMK A01 T01021025  RH  041%=      5-min Rain = 0
KBWS 172138Z 04006KT 10/M03 A3014 RMK A01 T01031028  RH  040%=      5-min Rain = 0
KBWS 172139Z 06008KT 10/M03 A3014 RMK A01 T01031027  RH  040%=      5-min Rain = 0
KBWS 172140Z 06009KT 10/M02 A3014 RMK A01 T01041024  RH  041%=      5-min Rain = 0
KBWS 172141Z 05010KT 10/M02 A3014 RMK A01 T01041024  RH  041%=      5-min Rain = 0
KBWS 172142Z 04010KT 11/M03 A3013 RMK A01 T01051025  RH  040%=      5-min Rain = 0
KBWS 172143Z 06010KT 10/M03 A3013 RMK A01 T01041030  RH  039%=      5-min Rain = 0
KBWS 172144Z 04010KT 10/M03 A3014 RMK A01 T01031028  RH  040%=      5-min Rain = 0
KBWS 172145Z 05006KT 10/M03 A3013 RMK A01 T01031030  RH  039%=      5-min Rain = 0
KBWS 172146Z 03006KT 10/M03 A3013 RMK A01 T01021030  RH  039%=      5-min Rain = 0
KBWS 172147Z 05009KT 10/M03 A3013 RMK A01 T01031028  RH  040%=      5-min Rain = 0
KBWS 172148Z 05009KT 10/M03 A3013 RMK A01 T01041028  RH  039%=      5-min Rain = 0
KBWS 172149Z 04008KT 10/M03 A3013 RMK A01 T01041028  RH  039%=      5-min Rain = 0
KBWS 172150Z 03006KT 10/M03 A3013 RMK A01 T01031030  RH  039%=      5-min Rain = 0
KBWS 172151Z 03005KT 10/M03 A3013 RMK A01 T01031031  RH  039%=      5-min Rain = 0
KBWS 172152Z 03005KT 10/M03 A3013 RMK A01 T01031030  RH  039%=      5-min Rain = 0
KBWS 172153Z 06006KT 10/M03 A3013 RMK A01 T01031027  RH  040%=      5-min Rain = 0
KBWS 172154Z 05005KT 11/M03 A3013 RMK A01 T01051025  RH  040%=      5-min Rain = 0
KBWS 172155Z 07008KT 11/M02 A3013 RMK A01 T01051024  RH  040%=      5-min Rain = 0
KBWS 172156Z 05007KT 11/M02 A3014 RMK A01 T01061024  RH  040%=      5-min Rain = 0
KBWS 172157Z 03007KT 11/M02 A3014 RMK A01 T01061022  RH  040%=      5-min Rain = 0
KBWS 172158Z 02008KT 11/M02 A3014 RMK A01 T01071024  RH  040%=      5-min Rain = 0
KBWS 172159Z 02007KT 11/M03 A3014 RMK A01 T01061025  RH  040%=      5-min Rain = 0
KBWS 172200Z 02008KT 11/M02 A3014 RMK A01 T01061024  RH  040%=      5-min Rain = 0
KBWS 172201Z 04005KT 11/M03 A3014 RMK A01 T01051025  RH  040%=      5-min Rain = 0
KBWS 172202Z 04003KT 10/M03 A3014 RMK A01 T01041026  RH  040%=      5-min Rain = 0
KBWS 172203Z 36004KT 10/M03 A3014 RMK A01 T01031025  RH  041%=      5-min Rain = 0
KBWS 172204Z 03005KT 10/M02 A3013 RMK A01 T01041023  RH  041%=      5-min Rain = 0
KBWS 172205Z 02005KT 10/M02 A3013 RMK A01 T01041024  RH  041%=      5-min Rain = 0
KBWS 172206Z 03006KT 11/M02 A3013 RMK A01 T01051024  RH  040%=      5-min Rain = 0
KBWS 172207Z 04006KT 10/M02 A3013 RMK A01 T01041023  RH  041%=      5-min Rain = 0
KBWS 172208Z 05008KT 11/M02 A3013 RMK A01 T01051022  RH  041%=      5-min Rain = 0
KBWS 172209Z 04009KT 11/M02 A3013 RMK A01 T01051023  RH  041%=      5-min Rain = 0
KBWS 172210Z 03005KT 10/M03 A3013 RMK A01 T01031025  RH  041%=      5-min Rain = 0
KBWS 172211Z 05004KT 10/M02 A3013 RMK A01 T01031024  RH  041%=      5-min Rain = 0
KBWS 172212Z 07006KT 10/M02 A3013 RMK A01 T01031023  RH  041%=      5-min Rain = 0
KBWS 172213Z 07008KT 10/M02 A3013 RMK A01 T01041020  RH  042%=      5-min Rain = 0
KBWS 172214Z 05010KT 11/M02 A3013 RMK A01 T01051019  RH  042%=      5-min Rain = 0
KBWS 172215Z 04008KT 11/M02 A3013 RMK A01 T01051021  RH  041%=      5-min Rain = 0
KBWS 172216Z 05008KT 11/M02 A3013 RMK A01 T01061022  RH  041%=      5-min Rain = 0
KBWS 172217Z 05009KT 11/M02 A3013 RMK A01 T01061021  RH  041%=      5-min Rain = 0
KBWS 172218Z 04007KT 11/M02 A3013 RMK A01 T01051023  RH  041%=      5-min Rain = 0
KBWS 172219Z 03006KT 10/M02 A3013 RMK A01 T01041022  RH  041%=      5-min Rain = 0
KBWS 172220Z 03005KT 10/M02 A3012 RMK A01 T01041023  RH  041%=      5-min Rain = 0
KBWS 172221Z 06007KT 10/M02 A3012 RMK A01 T01041023  RH  041%=      5-min Rain = 0
KBWS 172222Z 06005KT 11/M02 A3013 RMK A01 T01051020  RH  042%=      5-min Rain = 0
KBWS 172223Z 04007KT 11/M02 A3013 RMK A01 T01061020  RH  041%=      5-min Rain = 0
KBWS 172224Z 02005KT 11/M02 A3013 RMK A01 T01051023  RH  041%=      5-min Rain = 0
KBWS 172225Z 05003KT 10/M02 A3012 RMK A01 T01041023  RH  041%=      5-min Rain = 0
KBWS 172226Z 09003KT 10/M02 A3012 RMK A01 T01041022  RH  041%=      5-min Rain = 0
KBWS 172227Z 10005KT 11/M02 A3012 RMK A01 T01061022  RH  041%=      5-min Rain = 0
KBWS 172228Z 09004KT 11/M02 A3012 RMK A01 T01061022  RH  041%=      5-min Rain = 0
KBWS 172229Z 07004KT 11/M02 A3012 RMK A01 T01061022  RH  041%=      5-min Rain = 0
KBWS 172230Z 03004KT 11/M02 A3012 RMK A01 T01071020  RH  041%=      5-min Rain = 0
KBWS 172231Z 05005KT 11/M02 A3012 RMK A01 T01071021  RH  041%=      5-min Rain = 0
KBWS 172232Z 05009KT 11/M02 A3012 RMK A01 T01091018  RH  041%=      5-min Rain = 0
KBWS 172233Z 06011KT 11/M02 A3012 RMK A01 T01101019  RH  040%=      5-min Rain = 0
KBWS 172234Z 06008KT 11/M02 A3012 RMK A01 T01101020  RH  040%=      5-min Rain = 0
KBWS 172235Z 04007KT 11/M02 A3012 RMK A01 T01091020  RH  040%=      5-min Rain = 0
KBWS 172236Z 05006KT 11/M02 A3012 RMK A01 T01091021  RH  040%=      5-min Rain = 0
KBWS 172237Z 03006KT 11/M02 A3012 RMK A01 T01101020  RH  040%=      5-min Rain = 0
KBWS 172238Z 03005KT 11/M02 A3012 RMK A01 T01101022  RH  040%=      5-min Rain = 0
KBWS 172239Z 03004KT 11/M02 A3012 RMK A01 T01101022  RH  040%=      5-min Rain = 0
KBWS 172240Z 06003KT 11/M02 A3012 RMK A01 T01101022  RH  040%=      5-min Rain = 0
KBWS 172241Z 06004KT 11/M02 A3012 RMK A01 T01101019  RH  041%=      5-min Rain = 0
KBWS 172242Z 08006KT 11/M02 A3012 RMK A01 T01111020  RH  040%=      5-min Rain = 0
KBWS 172243Z 06006KT 11/M02 A3012 RMK A01 T01111020  RH  040%=      5-min Rain = 0
KBWS 172244Z 05008KT 11/M02 A3012 RMK A01 T01121020  RH  040%=      5-min Rain = 0
KBWS 172245Z 05008KT 11/M02 A3012 RMK A01 T01121022  RH  039%=      5-min Rain = 0
KBWS 172246Z 08008KT 11/M02 A3012 RMK A01 T01121022  RH  039%=      5-min Rain = 0
KBWS 172247Z 08006KT 11/M02 A3012 RMK A01 T01131023  RH  039%=      5-min Rain = 0
KBWS 172248Z 07006KT 11/M02 A3012 RMK A01 T01131022  RH  039%=      5-min Rain = 0
KBWS 172249Z 06009G14KT 12/M02 A3012 RMK A01 T01151016  RH  040%=      5-min Rain = 0
KBWS 172250Z 07009KT 12/M02 A3012 RMK A01 T01181017  RH  039%=      5-min Rain = 0
KBWS 172251Z 09007KT 12/M02 A3012 RMK A01 T01151022  RH  038%=      5-min Rain = 0
KBWS 172252Z 09007KT 11/M02 A3012 RMK A01 T01141023  RH  038%=      5-min Rain = 0
KBWS 172253Z 09008KT 11/M02 A3012 RMK A01 T01131022  RH  039%=      5-min Rain = 0
KBWS 172254Z 08007KT 11/M02 A3012 RMK A01 T01141022  RH  039%=      5-min Rain = 0
KBWS 172255Z 07006KT 11/M02 A3012 RMK A01 T01141021  RH  039%=      5-min Rain = 0
KBWS 172256Z 07004KT 11/M02 A3012 RMK A01 T01141021  RH  039%=      5-min Rain = 0
KBWS 172257Z 07007KT 11/M02 A3012 RMK A01 T01141018  RH  040%=      5-min Rain = 0
KBWS 172258Z 07009KT 12/M01 A3012 RMK A01 T01181014  RH  040%=      5-min Rain = 0
KBWS 172259Z 07009KT 12/M02 A3011 RMK A01 T01191017  RH  039%=      5-min Rain = 0
KBWS 172300Z 08010KT 12/M02 A3012 RMK A01 T01181020  RH  038%=      5-min Rain = 0
KBWS 172301Z 08009KT 12/M02 A3012 RMK A01 T01171020  RH  038%=      5-min Rain = 0
KBWS 172302Z 08011KT 12/M02 A3012 RMK A01 T01181020  RH  038%=      5-min Rain = 0
KBWS 172303Z 08009KT 12/M02 A3012 RMK A01 T01161021  RH  038%=      5-min Rain = 0
KBWS 172304Z 07010KT 12/M02 A3012 RMK A01 T01161018  RH  039%=      5-min Rain = 0
KBWS 172305Z 06010KT 12/M02 A3012 RMK A01 T01161017  RH  040%=      5-min Rain = 0
KBWS 172306Z 06007KT 12/M02 A3012 RMK A01 T01151019  RH  039%=      5-min Rain = 0
KBWS 172307Z 06005KT 11/M02 A3012 RMK A01 T01141018  RH  040%=      5-min Rain = 0
KBWS 172308Z 05004KT 11/M02 A3012 RMK A01 T01141017  RH  040%=      5-min Rain = 0
KBWS 172309Z 04005KT 11/M02 A3012 RMK A01 T01131020  RH  039%=      5-min Rain = 0
KBWS 172310Z 06008KT 11/M02 A3012 RMK A01 T01121019  RH  040%=      5-min Rain = 0
KBWS 172311Z 07010KT 11/M02 A3012 RMK A01 T01141019  RH  039%=      5-min Rain = 0
KBWS 172312Z 08008KT 11/M02 A3012 RMK A01 T01141022  RH  039%=      5-min Rain = 0
KBWS 172313Z 08009KT 11/M02 A3012 RMK A01 T01141022  RH  038%=      5-min Rain = 0
KBWS 172314Z 07008KT 11/M02 A3012 RMK A01 T01141022  RH  039%=      5-min Rain = 0
KBWS 172315Z 09009KT 12/M02 A3012 RMK A01 T01151020  RH  039%=      5-min Rain = 0
KBWS 172316Z 10007KT 12/M02 A3012 RMK A01 T01161021  RH  038%=      5-min Rain = 0
KBWS 172317Z 08007KT 12/M02 A3012 RMK A01 T01161021  RH  038%=      5-min Rain = 0
KBWS 172318Z 08009KT 12/M02 A3012 RMK A01 T01161021  RH  038%=      5-min Rain = 0
KBWS 172319Z 07004KT 12/M02 A3012 RMK A01 T01161020  RH  039%=      5-min Rain = 0
KBWS 172320Z 07005KT 12/M02 A3012 RMK A01 T01171021  RH  038%=      5-min Rain = 0
KBWS 172321Z 06005KT 12/M02 A3012 RMK A01 T01171021  RH  038%=      5-min Rain = 0
KBWS 172322Z 08005G10KT 12/M02 A3012 RMK A01 T01151021  RH  039%=      5-min Rain = 0
KBWS 172323Z 09008KT 12/M02 A3012 RMK A01 T01161019  RH  039%=      5-min Rain = 0
KBWS 172324Z 11008KT 12/M02 A3012 RMK A01 T01171020  RH  038%=      5-min Rain = 0
KBWS 172325Z 08007KT 12/M02 A3012 RMK A01 T01191019  RH  038%=      5-min Rain = 0
KBWS 172326Z 09006KT 12/M02 A3012 RMK A01 T01211021  RH  037%=      5-min Rain = 0
KBWS 172327Z 08005KT 12/M02 A3012 RMK A01 T01191023  RH  037%=      5-min Rain = 0
KBWS 172328Z 07007KT 12/M02 A3012 RMK A01 T01171023  RH  037%=      5-min Rain = 0
KBWS 172329Z 07005KT 12/M02 A3012 RMK A01 T01161023  RH  038%=      5-min Rain = 0
KBWS 172330Z 08005KT 12/M02 A3012 RMK A01 T01151023  RH  038%=      5-min Rain = 0
KBWS 172331Z 06006KT 12/M02 A3012 RMK A01 T01161021  RH  038%=      5-min Rain = 0
KBWS 172332Z 05005KT 12/M02 A3012 RMK A01 T01181021  RH  038%=      5-min Rain = 0
KBWS 172333Z 05003KT 12/M02 A3012 RMK A01 T01181022  RH  038%=      5-min Rain = 0
KBWS 172334Z 05004KT 12/M02 A3012 RMK A01 T01181022  RH  038%=      5-min Rain = 0
KBWS 172335Z 06009KT 12/M02 A3011 RMK A01 T01181019  RH  038%=      5-min Rain = 0
KBWS 172336Z 05009KT 12/M02 A3011 RMK A01 T01191020  RH  038%=      5-min Rain = 0
KBWS 172337Z 06010KT 12/M02 A3011 RMK A01 T01181020  RH  038%=      5-min Rain = 0
KBWS 172338Z 06011KT 12/M02 A3011 RMK A01 T01181017  RH  039%=      5-min Rain = 0
KBWS 172339Z 07010KT 12/M02 A3011 RMK A01 T01181017  RH  039%=      5-min Rain = 0
KBWS 172340Z 07011KT 12/M02 A3011 RMK A01 T01181020  RH  038%=      5-min Rain = 0
KBWS 172341Z 07010KT 12/M02 A3011 RMK A01 T01161022  RH  038%=      5-min Rain = 0
KBWS 172342Z 08008KT 12/M02 A3011 RMK A01 T01161022  RH  038%=      5-min Rain = 0
KBWS 172343Z 08010KT 12/M02 A3011 RMK A01 T01171020  RH  038%=      5-min Rain = 0
KBWS 172344Z 07009KT 12/M02 A3011 RMK A01 T01191020  RH  038%=      5-min Rain = 0
KBWS 172345Z 07008KT 12/M02 A3011 RMK A01 T01181020  RH  038%=      5-min Rain = 0
KBWS 172346Z 07009KT 12/M02 A3011 RMK A01 T01181017  RH  039%=      5-min Rain = 0
KBWS 172347Z 07012KT 12/M02 A3011 RMK A01 T01191018  RH  039%=      5-min Rain = 0
KBWS 172348Z 06010KT 12/M02 A3011 RMK A01 T01181016  RH  039%=      5-min Rain = 0
KBWS 172349Z 07011KT 12/M02 A3011 RMK A01 T01181015  RH  039%=      5-min Rain = 0
KBWS 172350Z 06009KT 12/M02 A3011 RMK A01 T01181017  RH  039%=      5-min Rain = 0
KBWS 172351Z 08006KT 12/M02 A3011 RMK A01 T01171017  RH  039%=      5-min Rain = 0
KBWS 172352Z 09006KT 12/M02 A3011 RMK A01 T01181019  RH  039%=      5-min Rain = 0
KBWS 172353Z 07005KT 12/M02 A3011 RMK A01 T01171021  RH  038%=      5-min Rain = 0
KBWS 172354Z 08005KT 12/M02 A3011 RMK A01 T01161020  RH  039%=      5-min Rain = 0
KBWS 172355Z 09010KT 12/M02 A3011 RMK A01 T01161019  RH  039%=      5-min Rain = 0
KBWS 172356Z 10009KT 12/M02 A3011 RMK A01 T01171021  RH  038%=      5-min Rain = 0
KBWS 172357Z 08010KT 12/M02 A3011 RMK A01 T01171020  RH  038%=      5-min Rain = 0
KBWS 172358Z 07007KT 12/M02 A3011 RMK A01 T01181021  RH  038%=      5-min Rain = 0
KBWS 172359Z 07006KT 12/M02 A3011 RMK A01 T01161022  RH  038%=      5-min Rain = 0
KBWS 180000Z 08009KT 12/M02 A3011 RMK A01 T01161019  RH  039%=      5-min Rain = 0
KBWS 180001Z 08007KT 12/M02 A3011 RMK A01 T01161021  RH  038%=      5-min Rain = 0
KBWS 180002Z 08008KT 12/M02 A3011 RMK A01 T01161021  RH  038%=      5-min Rain = 0
KBWS 180003Z 09011KT 12/M02 A3011 RMK A01 T01161019  RH  039%=      5-min Rain = 0
KBWS 180004Z 09009KT 12/M02 A3011 RMK A01 T01171019  RH  039%=      5-min Rain = 0
KBWS 180005Z 08009KT 12/M02 A3011 RMK A01 T01171020  RH  039%=      5-min Rain = 0
KBWS 180006Z 09006KT 12/M02 A3011 RMK A01 T01161018  RH  039%=      5-min Rain = 0
KBWS 180007Z 10009KT 12/M02 A3011 RMK A01 T01171018  RH  039%=      5-min Rain = 0
KBWS 180008Z 11009KT 12/M02 A3011 RMK A01 T01171019  RH  039%=      5-min Rain = 0
KBWS 180009Z 09008KT 12/M02 A3011 RMK A01 T01171019  RH  039%=      5-min Rain = 0
KBWS 180010Z 10007KT 12/M02 A3011 RMK A01 T01171019  RH  039%=      5-min Rain = 0
KBWS 180011Z 09009KT 12/M02 A3011 RMK A01 T01171020  RH  039%=      5-min Rain = 0
KBWS 180012Z 08009KT 12/M02 A3011 RMK A01 T01171018  RH  039%=      5-min Rain = 0
KBWS 180013Z 07010KT 12/M02 A3011 RMK A01 T01171016  RH  039%=      5-min Rain = 0
KBWS 180014Z 06009KT 12/M02 A3011 RMK A01 T01171017  RH  039%=      5-min Rain = 0
KBWS 180015Z 06007KT 12/M02 A3011 RMK A01 T01161019  RH  039%=      5-min Rain = 0
KBWS 180016Z 06005KT 12/M02 A3011 RMK A01 T01151017  RH  040%=      5-min Rain = 0
KBWS 180017Z 05005KT 12/M01 A3011 RMK A01 T01151014  RH  041%=      5-min Rain = 0
KBWS 180018Z 05007KT 12/M02 A3011 RMK A01 T01161016  RH  040%=      5-min Rain = 0
KBWS 180019Z 05007KT 12/M02 A3011 RMK A01 T01161018  RH  039%=      5-min Rain = 0
KBWS 180020Z 05007KT 12/M02 A3011 RMK A01 T01161019  RH  039%=      5-min Rain = 0
KBWS 180021Z 06006KT 11/M02 A3011 RMK A01 T01141019  RH  039%=      5-min Rain = 0
KBWS 180022Z 07007KT 11/M02 A3011 RMK A01 T01141015  RH  041%=      5-min Rain = 0
KBWS 180023Z 07009KT 11/M02 A3011 RMK A01 T01141017  RH  040%=      5-min Rain = 0
KBWS 180024Z 07008KT 11/M02 A3011 RMK A01 T01141017  RH  040%=      5-min Rain = 0
KBWS 180025Z 08011KT 12/M02 A3011 RMK A01 T01151017  RH  040%=      5-min Rain = 0
KBWS 180026Z 08010KT 12/M02 A3011 RMK A01 T01151019  RH  039%=      5-min Rain = 0
KBWS 180027Z 08010KT 12/M02 A3011 RMK A01 T01151018  RH  040%=      5-min Rain = 0
KBWS 180028Z 07010KT 12/M02 A3011 RMK A01 T01151017  RH  040%=      5-min Rain = 0
KBWS 180029Z 08009KT 12/M02 A3011 RMK A01 T01151016  RH  040%=      5-min Rain = 0
KBWS 180030Z 08010KT 12/M02 A3011 RMK A01 T01151018  RH  040%=      5-min Rain = 0
KBWS 180031Z 09007KT 12/M02 A3011 RMK A01 T01151018  RH  040%=      5-min Rain = 0
KBWS 180032Z 08008KT 12/M02 A3011 RMK A01 T01151017  RH  040%=      5-min Rain = 0
KBWS 180033Z 08008KT 12/M02 A3011 RMK A01 T01151019  RH  039%=      5-min Rain = 0
KBWS 180034Z 07007KT 11/M02 A3011 RMK A01 T01141020  RH  039%=      5-min Rain = 0
KBWS 180035Z 07006KT 11/M02 A3011 RMK A01 T01141017  RH  040%=      5-min Rain = 0
KBWS 180036Z 09006KT 11/M02 A3011 RMK A01 T01141017  RH  040%=      5-min Rain = 0
KBWS 180037Z 09008KT 11/M02 A3011 RMK A01 T01141018  RH  040%=      5-min Rain = 0
KBWS 180038Z 09008KT 11/M02 A3012 RMK A01 T01141018  RH  040%=      5-min Rain = 0
KBWS 180039Z 09008KT 11/M02 A3012 RMK A01 T01131018  RH  040%=      5-min Rain = 0
KBWS 180040Z 10006KT 11/M02 A3012 RMK A01 T01131019  RH  040%=      5-min Rain = 0
KBWS 180041Z 09006KT 11/M02 A3012 RMK A01 T01121020  RH  040%=      5-min Rain = 0
KBWS 180042Z 08006KT 11/M02 A3012 RMK A01 T01121019  RH  040%=      5-min Rain = 0
KBWS 180043Z 08007KT 11/M02 A3012 RMK A01 T01121017  RH  040%=      5-min Rain = 0
KBWS 180044Z 09007KT 11/M02 A3012 RMK A01 T01121017  RH  040%=      5-min Rain = 0
KBWS 180045Z 08008KT 11/M02 A3012 RMK A01 T01121017  RH  041%=      5-min Rain = 0
KBWS 180046Z 07007KT 11/M01 A3012 RMK A01 T01121014  RH  042%=      5-min Rain = 0
KBWS 180047Z 06008KT 11/M01 A3012 RMK A01 T01121008  RH  043%=      5-min Rain = 0
KBWS 180048Z 06009KT 11/M01 A3012 RMK A01 T01121010  RH  043%=      5-min Rain = 0
KBWS 180049Z 06007KT 11/M01 A3012 RMK A01 T01111014  RH  042%=      5-min Rain = 0
KBWS 180050Z 06007KT 11/M01 A3012 RMK A01 T01111012  RH  043%=      5-min Rain = 0
KBWS 180051Z 06006KT 11/M01 A3012 RMK A01 T01101012  RH  043%=      5-min Rain = 0
KBWS 180052Z 07005KT 11/M01 A3012 RMK A01 T01111011  RH  043%=      5-min Rain = 0
KBWS 180053Z 08006KT 11/M02 A3012 RMK A01 T01101015  RH  041%=      5-min Rain = 0
KBWS 180054Z 06006KT 11/M02 A3012 RMK A01 T01101015  RH  042%=      5-min Rain = 0
KBWS 180055Z 06007KT 11/M01 A3012 RMK A01 T01101014  RH  042%=      5-min Rain = 0
KBWS 180056Z 06007KT 11/M01 A3012 RMK A01 T01101013  RH  042%=      5-min Rain = 0
KBWS 180057Z 08006KT 11/M01 A3012 RMK A01 T01101012  RH  043%=      5-min Rain = 0
KBWS 180058Z 08007KT 11/M02 A3012 RMK A01 T01101015  RH  042%=      5-min Rain = 0
KBWS 180059Z 09007KT 11/M02 A3012 RMK A01 T01091016  RH  042%=      5-min Rain = 0
KBWS 180100Z 09006KT 11/M02 A3012 RMK A01 T01081017  RH  042%=      5-min Rain = 0
KBWS 180101Z 09006KT 11/M02 A3012 RMK A01 T01081017  RH  042%=      5-min Rain = 0
KBWS 180102Z 09006KT 11/M02 A3012 RMK A01 T01081017  RH  042%=      5-min Rain = 0
KBWS 180103Z 09005KT 11/M02 A3012 RMK A01 T01081017  RH  042%=      5-min Rain = 0
KBWS 180104Z 09004KT 11/M02 A3012 RMK A01 T01081017  RH  042%=      5-min Rain = 0
KBWS 180105Z 09005KT 11/M02 A3012 RMK A01 T01071017  RH  042%=      5-min Rain = 0
KBWS 180106Z 09006KT 11/M02 A3012 RMK A01 T01071017  RH  042%=      5-min Rain = 0
KBWS 180107Z 08005KT 11/M02 A3012 RMK A01 T01071017  RH  042%=      5-min Rain = 0
KBWS 180108Z 09003KT 11/M02 A3012 RMK A01 T01071015  RH  043%=      5-min Rain = 0
KBWS 180109Z 10004KT 11/M02 A3012 RMK A01 T01061015  RH  043%=      5-min Rain = 0
KBWS 180110Z 10005KT 11/M02 A3012 RMK A01 T01061015  RH  043%=      5-min Rain = 0
KBWS 180111Z 10005KT 11/M02 A3012 RMK A01 T01051015  RH  043%=      5-min Rain = 0
KBWS 180112Z 10005KT 10/M02 A3012 RMK A01 T01041016  RH  043%=      5-min Rain = 0
KBWS 180113Z 10005KT 10/M02 A3012 RMK A01 T01041015  RH  044%=      5-min Rain = 0
KBWS 180114Z 09006KT 10/M02 A3012 RMK A01 T01031015  RH  044%=      5-min Rain = 0
KBWS 180115Z 09007KT 10/M02 A3012 RMK A01 T01031015  RH  044%=      5-min Rain = 0
KBWS 180116Z 08007KT 10/M02 A3012 RMK A01 T01031015  RH  044%=      5-min Rain = 0
KBWS 180117Z 09006KT 10/M02 A3012 RMK A01 T01041015  RH  044%=      5-min Rain = 0
KBWS 180118Z 09006KT 10/M01 A3012 RMK A01 T01041013  RH  044%=      5-min Rain = 0
KBWS 180119Z 09006KT 10/M01 A3012 RMK A01 T01031013  RH  045%=      5-min Rain = 0
KBWS 180120Z 09007KT 10/M01 A3012 RMK A01 T01021014  RH  044%=      5-min Rain = 0
KBWS 180121Z 09007KT 10/M01 A3012 RMK A01 T01021014  RH  044%=      5-min Rain = 0
KBWS 180122Z 09007KT 10/M02 A3012 RMK A01 T01021015  RH  044%=      5-min Rain = 0
KBWS 180123Z 09007KT 10/M02 A3012 RMK A01 T01021015  RH  044%=      5-min Rain = 0
KBWS 180124Z 08006KT 10/M02 A3012 RMK A01 T01011015  RH  044%=      5-min Rain = 0
KBWS 180125Z 08006KT 10/M01 A3012 RMK A01 T01011014  RH  045%=      5-min Rain = 0
KBWS 180126Z 08006KT 10/M01 A3012 RMK A01 T01001014  RH  045%=      5-min Rain = 0
KBWS 180127Z 08006KT 10/M01 A3012 RMK A01 T00991014  RH  045%=      5-min Rain = 0
KBWS 180128Z 08006KT 10/M01 A3012 RMK A01 T00991014  RH  045%=      5-min Rain = 0
KBWS 180129Z 08006KT 10/M01 A3012 RMK A01 T00991013  RH  046%=      5-min Rain = 0
KBWS 180130Z 07006KT 10/M01 A3012 RMK A01 T00981011  RH  047%=      5-min Rain = 0
KBWS 180131Z 07006KT 10/M01 A3012 RMK A01 T00981009  RH  048%=      5-min Rain = 0
KBWS 180132Z 07006KT 10/M01 A3012 RMK A01 T00971008  RH  048%=      5-min Rain = 0
KBWS 180133Z 07006KT 10/M01 A3012 RMK A01 T00971007  RH  048%=      5-min Rain = 0
KBWS 180134Z 07006KT 10/M01 A3012 RMK A01 T00971006  RH  049%=      5-min Rain = 0
KBWS 180135Z 07005KT 10/M01 A3012 RMK A01 T00971005  RH  049%=      5-min Rain = 0
KBWS 180136Z 07006KT 10/M00 A3012 RMK A01 T00971003  RH  050%=      5-min Rain = 0
KBWS 180137Z 07006KT 10/M01 A3012 RMK A01 T00971006  RH  049%=      5-min Rain = 0
KBWS 180138Z 06006KT 10/M00 A3012 RMK A01 T00981004  RH  049%=      5-min Rain = 0
KBWS 180139Z 06006KT 10/M00 A3012 RMK A01 T00981004  RH  049%=      5-min Rain = 0
KBWS 180140Z 06006KT 10/M00 A3012 RMK A01 T00981004  RH  049%=      5-min Rain = 0
KBWS 180141Z 06007KT 10/M00 A3012 RMK A01 T00971003  RH  050%=      5-min Rain = 0
KBWS 180142Z 06007KT 10/M01 A3012 RMK A01 T00971006  RH  049%=      5-min Rain = 0
KBWS 180143Z 06007KT 10/M01 A3012 RMK A01 T00971006  RH  048%=      5-min Rain = 0
KBWS 180144Z 06008KT 10/M01 A3013 RMK A01 T00971005  RH  049%=      5-min Rain = 0
KBWS 180145Z 06008KT 10/M01 A3013 RMK A01 T00971005  RH  049%=      5-min Rain = 0
KBWS 180146Z 06008KT 10/M01 A3013 RMK A01 T00971006  RH  049%=      5-min Rain = 0
KBWS 180147Z 06007KT 10/M00 A3013 RMK A01 T00971004  RH  049%=      5-min Rain = 0
KBWS 180148Z 06009KT 10/M01 A3013 RMK A01 T00971005  RH  049%=      5-min Rain = 0
KBWS 180149Z 06008KT 10/M01 A3013 RMK A01 T00971008  RH  048%=      5-min Rain = 0
KBWS 180150Z 06009KT 10/M01 A3013 RMK A01 T00981008  RH  048%=      5-min Rain = 0
KBWS 180151Z 06009KT 10/M01 A3013 RMK A01 T00981010  RH  047%=      5-min Rain = 0
KBWS 180152Z 06007KT 10/M01 A3013 RMK A01 T00981009  RH  048%=      5-min Rain = 0
KBWS 180153Z 06008KT 10/M01 A3013 RMK A01 T00981008  RH  048%=      5-min Rain = 0
KBWS 180154Z 06007KT 10/M01 A3013 RMK A01 T00981007  RH  048%=      5-min Rain = 0
KBWS 180155Z 06007KT 10/M01 A3013 RMK A01 T00971005  RH  049%=      5-min Rain = 0
KBWS 180156Z 06007KT 10/M01 A3013 RMK A01 T00971007  RH  048%=      5-min Rain = 0
KBWS 180157Z 06007KT 10/M01 A3014 RMK A01 T00971007  RH  048%=      5-min Rain = 0
KBWS 180158Z 06008KT 10/M01 A3014 RMK A01 T00971005  RH  049%=      5-min Rain = 0
KBWS 180159Z 06007KT 10/M01 A3014 RMK A01 T00971008  RH  048%=      5-min Rain = 0
KBWS 180200Z 06008KT 10/M01 A3014 RMK A01 T00961006  RH  049%=      5-min Rain = 0
KBWS 180201Z 06007KT 10/M01 A3014 RMK A01 T00961007  RH  049%=      5-min Rain = 0
KBWS 180202Z 06007KT 10/M01 A3014 RMK A01 T00961008  RH  048%=      5-min Rain = 0
KBWS 180203Z 06008KT 10/M01 A3014 RMK A01 T00961007  RH  049%=      5-min Rain = 0
KBWS 180204Z 06008KT 10/M01 A3014 RMK A01 T00961007  RH  049%=      5-min Rain = 0
KBWS 180205Z 06008KT 10/M01 A3014 RMK A01 T00951007  RH  049%=      5-min Rain = 0
KBWS 180206Z 06007KT 10/M01 A3014 RMK A01 T00951007  RH  049%=      5-min Rain = 0
KBWS 180207Z 06008KT 10/M01 A3014 RMK A01 T00951007  RH  049%=      5-min Rain = 0
KBWS 180208Z 06007KT 10/M01 A3014 RMK A01 T00951008  RH  049%=      5-min Rain = 0
KBWS 180209Z 06007KT 10/M01 A3014 RMK A01 T00951007  RH  049%=      5-min Rain = 0
KBWS 180210Z 06008KT 09/M01 A3014 RMK A01 T00941007  RH  049%=      5-min Rain = 0
KBWS 180211Z 06007KT 09/M01 A3014 RMK A01 T00941008  RH  049%=      5-min Rain = 0
KBWS 180212Z 05007KT 09/M01 A3014 RMK A01 T00941007  RH  049%=      5-min Rain = 0
KBWS 180213Z 05007KT 09/M01 A3014 RMK A01 T00941007  RH  049%=      5-min Rain = 0
KBWS 180214Z 05006KT 09/M01 A3014 RMK A01 T00931007  RH  050%=      5-min Rain = 0
KBWS 180215Z 05007KT 09/M01 A3014 RMK A01 T00921008  RH  050%=      5-min Rain = 0
KBWS 180216Z 05007KT 09/M01 A3014 RMK A01 T00911008  RH  050%=      5-min Rain = 0
KBWS 180217Z 05007KT 09/M01 A3014 RMK A01 T00911007  RH  050%=      5-min Rain = 0
KBWS 180218Z 05007KT 09/M01 A3015 RMK A01 T00901008  RH  050%=      5-min Rain = 0
KBWS 180219Z 05007KT 09/M01 A3015 RMK A01 T00901009  RH  050%=      5-min Rain = 0
KBWS 180220Z 05007KT 09/M01 A3015 RMK A01 T00901008  RH  050%=      5-min Rain = 0
KBWS 180221Z 05007KT 09/M01 A3015 RMK A01 T00891009  RH  050%=      5-min Rain = 0
KBWS 180222Z 05007KT 09/M01 A3015 RMK A01 T00891009  RH  050%=      5-min Rain = 0
KBWS 180223Z 05007KT 09/M01 A3015 RMK A01 T00881009  RH  051%=      5-min Rain = 0
KBWS 180224Z 04007KT 09/M01 A3015 RMK A01 T00881009  RH  051%=      5-min Rain = 0
KBWS 180225Z 04007KT 09/M01 A3015 RMK A01 T00881009  RH  051%=      5-min Rain = 0
KBWS 180226Z 04008KT 09/M01 A3015 RMK A01 T00871010  RH  051%=      5-min Rain = 0
KBWS 180227Z 04008KT 09/M01 A3015 RMK A01 T00871010  RH  051%=      5-min Rain = 0
KBWS 180228Z 04007KT 09/M01 A3015 RMK A01 T00871009  RH  051%=      5-min Rain = 0
KBWS 180229Z 04007KT 09/M01 A3015 RMK A01 T00861009  RH  051%=      5-min Rain = 0
KBWS 180230Z 04007KT 09/M01 A3015 RMK A01 T00861009  RH  051%=      5-min Rain = 0
KBWS 180231Z 04007KT 09/M01 A3015 RMK A01 T00861009  RH  051%=      5-min Rain = 0
KBWS 180232Z 04007KT 09/M01 A3015 RMK A01 T00861010  RH  051%=      5-min Rain = 0
KBWS 180233Z 04007KT 09/M01 A3016 RMK A01 T00861010  RH  051%=      5-min Rain = 0
KBWS 180234Z 04007KT 09/M01 A3016 RMK A01 T00861010  RH  051%=      5-min Rain = 0
KBWS 180235Z 04007KT 09/M01 A3016 RMK A01 T00861011  RH  051%=      5-min Rain = 0
KBWS 180236Z 04008KT 09/M01 A3016 RMK A01 T00861011  RH  050%=      5-min Rain = 0
KBWS 180237Z 04007KT 09/M01 A3016 RMK A01 T00861011  RH  050%=      5-min Rain = 0
KBWS 180238Z 04008KT 09/M01 A3016 RMK A01 T00861011  RH  050%=      5-min Rain = 0
KBWS 180239Z 04008KT 09/M01 A3016 RMK A01 T00861011  RH  050%=      5-min Rain = 0
KBWS 180240Z 05008KT 09/M01 A3016 RMK A01 T00871011  RH  050%=      5-min Rain = 0
KBWS 180241Z 05007KT 09/M01 A3016 RMK A01 T00871011  RH  050%=      5-min Rain = 0
KBWS 180242Z 04008KT 09/M01 A3016 RMK A01 T00871012  RH  050%=      5-min Rain = 0
KBWS 180243Z 05008KT 09/M01 A3016 RMK A01 T00871012  RH  050%=      5-min Rain = 0
KBWS 180244Z 05008KT 09/M01 A3017 RMK A01 T00881012  RH  049%=      5-min Rain = 0
KBWS 180245Z 05007KT 09/M01 A3017 RMK A01 T00881011  RH  050%=      5-min Rain = 0
KBWS 180246Z 06007KT 09/M01 A3017 RMK A01 T00881009  RH  051%=      5-min Rain = 0
KBWS 180247Z 07007KT 09/M01 A3017 RMK A01 T00871006  RH  052%=      5-min Rain = 0
KBWS 180248Z 07007KT 09/M01 A3017 RMK A01 T00861008  RH  052%=      5-min Rain = 0
KBWS 180249Z 06007KT 09/M01 A3017 RMK A01 T00851010  RH  051%=      5-min Rain = 0
KBWS 180250Z 06008KT 08/M01 A3017 RMK A01 T00841008  RH  052%=      5-min Rain = 0
KBWS 180251Z 06008KT 09/M01 A3017 RMK A01 T00851009  RH  052%=      5-min Rain = 0
KBWS 180252Z 06007KT 09/M01 A3017 RMK A01 T00861009  RH  051%=      5-min Rain = 0
KBWS 180253Z 06007KT 09/M01 A3017 RMK A01 T00871009  RH  051%=      5-min Rain = 0
KBWS 180254Z 06007KT 09/M01 A3017 RMK A01 T00871009  RH  051%=      5-min Rain = 0
KBWS 180255Z 06006KT 09/M01 A3017 RMK A01 T00871009  RH  051%=      5-min Rain = 0
KBWS 180256Z 06006KT 09/M01 A3017 RMK A01 T00871008  RH  052%=      5-min Rain = 0
KBWS 180257Z 06006KT 09/M01 A3018 RMK A01 T00861005  RH  052%=      5-min Rain = 0
KBWS 180258Z 06006KT 09/M01 A3018 RMK A01 T00861005  RH  053%=      5-min Rain = 0
KBWS 180259Z 06006KT 09/M01 A3018 RMK A01 T00851005  RH  053%=      5-min Rain = 0
KBWS 180300Z 06007KT 09/M01 A3018 RMK A01 T00851005  RH  053%=      5-min Rain = 0
KBWS 180301Z 06007KT 08/M01 A3018 RMK A01 T00841007  RH  052%=      5-min Rain = 0
KBWS 180302Z 06006KT 09/M01 A3018 RMK A01 T00851008  RH  052%=      5-min Rain = 0
KBWS 180303Z 07005KT 09/M01 A3018 RMK A01 T00861005  RH  053%=      5-min Rain = 0
KBWS 180304Z 06005KT 09/M00 A3018 RMK A01 T00861003  RH  054%=      5-min Rain = 0
KBWS 180305Z 06004KT 09/M00 A3018 RMK A01 T00861002  RH  054%=      5-min Rain = 0
KBWS 180306Z 06005KT 09/M01 A3018 RMK A01 T00851005  RH  053%=      5-min Rain = 0
KBWS 180307Z 06005KT 08/M01 A3018 RMK A01 T00841005  RH  053%=      5-min Rain = 0
KBWS 180308Z 06006KT 08/M01 A3018 RMK A01 T00841005  RH  053%=      5-min Rain = 0
KBWS 180309Z 06006KT 08/M01 A3018 RMK A01 T00831007  RH  053%=      5-min Rain = 0
KBWS 180310Z 06006KT 08/M01 A3018 RMK A01 T00841006  RH  053%=      5-min Rain = 0
KBWS 180311Z 06006KT 08/M01 A3018 RMK A01 T00841006  RH  053%=      5-min Rain = 0
KBWS 180312Z 06005KT 08/M01 A3018 RMK A01 T00841005  RH  053%=      5-min Rain = 0
KBWS 180313Z 07006KT 08/M00 A3018 RMK A01 T00841003  RH  054%=      5-min Rain = 0
KBWS 180314Z 07005KT 08/M00 A3018 RMK A01 T00831004  RH  054%=      5-min Rain = 0
KBWS 180315Z 07005KT 08/M00 A3018 RMK A01 T00821004  RH  055%=      5-min Rain = 0
KBWS 180316Z 07005KT 08/M01 A3018 RMK A01 T00811005  RH  054%=      5-min Rain = 0
KBWS 180317Z 06004KT 08/M01 A3018 RMK A01 T00811006  RH  054%=      5-min Rain = 0
KBWS 180318Z 06004KT 08/M00 A3018 RMK A01 T00801003  RH  056%=      5-min Rain = 0
KBWS 180319Z 05004KT 08/M00 A3018 RMK A01 T00791004  RH  056%=      5-min Rain = 0
KBWS 180320Z 05004KT 08/M01 A3018 RMK A01 T00791006  RH  055%=      5-min Rain = 0
KBWS 180321Z 05004KT 08/M01 A3018 RMK A01 T00781007  RH  055%=      5-min Rain = 0
KBWS 180322Z 05004KT 08/M01 A3018 RMK A01 T00771006  RH  055%=      5-min Rain = 0
KBWS 180323Z 04003KT 08/M01 A3018 RMK A01 T00761008  RH  055%=      5-min Rain = 0
KBWS 180324Z 03003KT 07/M01 A3018 RMK A01 T00741010  RH  055%=      5-min Rain = 0
KBWS 180325Z 04003KT 07/M01 A3018 RMK A01 T00731012  RH  055%=      5-min Rain = 0
KBWS 180326Z 04004KT 07/M01 A3018 RMK A01 T00731012  RH  055%=      5-min Rain = 0
KBWS 180327Z 05004KT 07/M01 A3018 RMK A01 T00721011  RH  055%=      5-min Rain = 0
KBWS 180328Z 05004KT 07/M01 A3018 RMK A01 T00721011  RH  056%=      5-min Rain = 0
KBWS 180329Z 04004KT 07/M01 A3018 RMK A01 T00711010  RH  056%=      5-min Rain = 0
KBWS 180330Z 04004KT 07/M01 A3018 RMK A01 T00711010  RH  056%=      5-min Rain = 0
KBWS 180331Z 04004KT 07/M01 A3018 RMK A01 T00711008  RH  057%=      5-min Rain = 0
KBWS 180332Z 05004KT 07/M01 A3018 RMK A01 T00701008  RH  058%=      5-min Rain = 0
KBWS 180333Z 05004KT 07/M01 A3018 RMK A01 T00691008  RH  058%=      5-min Rain = 0
KBWS 180334Z 05004KT 07/M01 A3018 RMK A01 T00691007  RH  058%=      5-min Rain = 0
KBWS 180335Z 05004KT 07/M01 A3018 RMK A01 T00691006  RH  059%=      5-min Rain = 0
KBWS 180336Z 05004KT 07/M01 A3018 RMK A01 T00701005  RH  059%=      5-min Rain = 0
KBWS 180337Z 05004KT 07/M01 A3019 RMK A01 T00701006  RH  059%=      5-min Rain = 0
KBWS 180338Z 05005KT 07/M01 A3019 RMK A01 T00711006  RH  058%=      5-min Rain = 0
KBWS 180339Z 05004KT 07/M01 A3019 RMK A01 T00711006  RH  058%=      5-min Rain = 0
KBWS 180340Z 05004KT 07/M01 A3019 RMK A01 T00711005  RH  058%=      5-min Rain = 0
KBWS 180341Z 05004KT 07/M01 A3019 RMK A01 T00711005  RH  058%=      5-min Rain = 0
KBWS 180342Z 05004KT 07/M00 A3019 RMK A01 T00711004  RH  059%=      5-min Rain = 0
KBWS 180343Z 05004KT 07/M00 A3019 RMK A01 T00711004  RH  059%=      5-min Rain = 0
KBWS 180344Z 05004KT 07/M01 A3019 RMK A01 T00701005  RH  059%=      5-min Rain = 0
KBWS 180345Z 04004KT 07/M01 A3019 RMK A01 T00681007  RH  059%=      5-min Rain = 0
KBWS 180346Z 04004KT 07/M01 A3019 RMK A01 T00671008  RH  059%=      5-min Rain = 0
KBWS 180347Z 04004KT 07/M01 A3019 RMK A01 T00661010  RH  058%=      5-min Rain = 0
KBWS 180348Z 04004KT 07/M01 A3019 RMK A01 T00651010  RH  058%=      5-min Rain = 0
KBWS 180349Z 05004KT 07/M01 A3019 RMK A01 T00651011  RH  058%=      5-min Rain = 0
KBWS 180350Z 05005KT 07/M01 A3019 RMK A01 T00651011  RH  058%=      5-min Rain = 0
KBWS 180351Z 05004KT 07/M01 A3019 RMK A01 T00651011  RH  058%=      5-min Rain = 0
KBWS 180352Z 05004KT 07/M01 A3019 RMK A01 T00651009  RH  059%=      5-min Rain = 0
KBWS 180353Z 06004KT 07/M01 A3019 RMK A01 T00671008  RH  059%=      5-min Rain = 0
KBWS 180354Z 06004KT 07/M01 A3019 RMK A01 T00671006  RH  059%=      5-min Rain = 0
KBWS 180355Z 06004KT 07/M01 A3019 RMK A01 T00681005  RH  060%=      5-min Rain = 0
KBWS 180356Z 05004KT 07/M01 A3019 RMK A01 T00691006  RH  059%=      5-min Rain = 0
KBWS 180357Z 05004KT 07/M01 A3019 RMK A01 T00691005  RH  059%=      5-min Rain = 0
KBWS 180358Z 05004KT 07/M01 A3019 RMK A01 T00691006  RH  059%=      5-min Rain = 0
KBWS 180359Z 05004KT 07/M01 A3019 RMK A01 T00691006  RH  058%=      5-min Rain = 0
KBWS 180400Z 05004KT 07/M01 A3019 RMK A01 T00691007  RH  059%=      5-min Rain = 0
KBWS 180401Z 05004KT 07/M01 A3019 RMK A01 T00681006  RH  059%=      5-min Rain = 0
KBWS 180402Z 05004KT 07/M01 A3019 RMK A01 T00681005  RH  060%=      5-min Rain = 0
KBWS 180403Z 06004KT 07/M01 A3019 RMK A01 T00681005  RH  060%=      5-min Rain = 0
KBWS 180404Z 06004KT 07/M00 A3019 RMK A01 T00681004  RH  060%=      5-min Rain = 0
KBWS 180405Z 06004KT 07/M00 A3019 RMK A01 T00681001  RH  061%=      5-min Rain = 0
KBWS 180406Z 06004KT 07/00 A3019 RMK A01 T00680000  RH  062%=      5-min Rain = 0
KBWS 180407Z 06005KT 07/M00 A3019 RMK A01 T00681001  RH  062%=      5-min Rain = 0
KBWS 180408Z 06005KT 07/M00 A3019 RMK A01 T00691003  RH  060%=      5-min Rain = 0
KBWS 180409Z 06005KT 07/M00 A3019 RMK A01 T00701003  RH  060%=      5-min Rain = 0
KBWS 180410Z 06005KT 07/M01 A3019 RMK A01 T00701005  RH  059%=      5-min Rain = 0
KBWS 180411Z 06004KT 07/M01 A3019 RMK A01 T00701005  RH  059%=      5-min Rain = 0
KBWS 180412Z 06003KT 07/M00 A3019 RMK A01 T00691004  RH  060%=      5-min Rain = 0
KBWS 180413Z 06004KT 07/M00 A3019 RMK A01 T00681004  RH  060%=      5-min Rain = 0
KBWS 180414Z 06004KT 07/M00 A3019 RMK A01 T00671004  RH  060%=      5-min Rain = 0
KBWS 180415Z 06004KT 07/M00 A3019 RMK A01 T00661004  RH  061%=      5-min Rain = 0
KBWS 180416Z 06004KT 07/M00 A3019 RMK A01 T00661003  RH  061%=      5-min Rain = 0
KBWS 180417Z 06004KT 07/M00 A3019 RMK A01 T00661002  RH  062%=      5-min Rain = 0
KBWS 180418Z 06005KT 07/M00 A3019 RMK A01 T00661002  RH  062%=      5-min Rain = 0
KBWS 180419Z 05005KT 07/M00 A3019 RMK A01 T00661004  RH  061%=      5-min Rain = 0
KBWS 180420Z 05005KT 07/M01 A3019 RMK A01 T00661007  RH  060%=      5-min Rain = 0
KBWS 180421Z 05005KT 06/M01 A3019 RMK A01 T00641008  RH  060%=      5-min Rain = 0
KBWS 180422Z 05004KT 06/M01 A3019 RMK A01 T00621009  RH  060%=      5-min Rain = 0
KBWS 180423Z 06004KT 06/M01 A3019 RMK A01 T00621009  RH  061%=      5-min Rain = 0
KBWS 180424Z 06004KT 06/M01 A3019 RMK A01 T00611008  RH  061%=      5-min Rain = 0
KBWS 180425Z 06004KT 06/M01 A3019 RMK A01 T00611007  RH  062%=      5-min Rain = 0
KBWS 180426Z 06004KT 06/M01 A3019 RMK A01 T00611005  RH  063%=      5-min Rain = 0
KBWS 180427Z 06005KT 06/M00 A3019 RMK A01 T00611004  RH  063%=      5-min Rain = 0
KBWS 180428Z 06004KT 06/M00 A3019 RMK A01 T00611004  RH  063%=      5-min Rain = 0
KBWS 180429Z 06004KT 06/M00 A3019 RMK A01 T00611004  RH  063%=      5-min Rain = 0
KBWS 180430Z 06004KT 06/M00 A3019 RMK A01 T00611004  RH  063%=      5-min Rain = 0
KBWS 180431Z 06005KT 06/M00 A3019 RMK A01 T00611004  RH  063%=      5-min Rain = 0
KBWS 180432Z 06005KT 06/M00 A3019 RMK A01 T00611004  RH  063%=      5-min Rain = 0
KBWS 180433Z 06005KT 06/M00 A3019 RMK A01 T00611004  RH  063%=      5-min Rain = 0
KBWS 180434Z 06005KT 06/M01 A3019 RMK A01 T00611005  RH  063%=      5-min Rain = 0
KBWS 180435Z 05006KT 06/M00 A3019 RMK A01 T00611004  RH  063%=      5-min Rain = 0
KBWS 180436Z 05006KT 06/M01 A3019 RMK A01 T00611005  RH  063%=      5-min Rain = 0
KBWS 180437Z 05006KT 06/M01 A3019 RMK A01 T00601006  RH  063%=      5-min Rain = 0
KBWS 180438Z 05006KT 06/M01 A3019 RMK A01 T00591006  RH  063%=      5-min Rain = 0
KBWS 180439Z 05007KT 06/M01 A3019 RMK A01 T00581006  RH  064%=      5-min Rain = 0
KBWS 180440Z 04006KT 06/M01 A3019 RMK A01 T00571006  RH  064%=      5-min Rain = 0
KBWS 180441Z 04007KT 06/M01 A3019 RMK A01 T00561007  RH  064%=      5-min Rain = 0
KBWS 180442Z 04007KT 06/M01 A3019 RMK A01 T00551007  RH  064%=      5-min Rain = 0
KBWS 180443Z 04008KT 06/M01 A3019 RMK A01 T00551007  RH  065%=      5-min Rain = 0
KBWS 180444Z 04008KT 06/M01 A3019 RMK A01 T00551007  RH  065%=      5-min Rain = 0
KBWS 180445Z 05007KT 06/M01 A3019 RMK A01 T00551006  RH  065%=      5-min Rain = 0
KBWS 180446Z 05007KT 06/M01 A3019 RMK A01 T00551005  RH  065%=      5-min Rain = 0
KBWS 180447Z 05007KT 06/M00 A3019 RMK A01 T00561004  RH  065%=      5-min Rain = 0
KBWS 180448Z 05007KT 06/M00 A3019 RMK A01 T00561003  RH  066%=      5-min Rain = 0
KBWS 180449Z 05006KT 06/M00 A3019 RMK A01 T00561003  RH  066%=      5-min Rain = 0
KBWS 180450Z 05007KT 06/M00 A3019 RMK A01 T00561002  RH  066%=      5-min Rain = 0
KBWS 180451Z 05007KT 06/M00 A3019 RMK A01 T00571003  RH  066%=      5-min Rain = 0
KBWS 180452Z 05007KT 06/M00 A3019 RMK A01 T00571003  RH  065%=      5-min Rain = 0
KBWS 180453Z 05007KT 06/M00 A3019 RMK A01 T00571003  RH  065%=      5-min Rain = 0
KBWS 180454Z 05007KT 06/M00 A3019 RMK A01 T00571003  RH  065%=      5-min Rain = 0
KBWS 180455Z 05006KT 06/M00 A3019 RMK A01 T00571003  RH  065%=      5-min Rain = 0
KBWS 180456Z 05007KT 06/M00 A302 RMK A01 T00571004  RH  065%=      5-min Rain = 0
KBWS 180457Z 05007KT 06/M00 A302 RMK A01 T00571004  RH  065%=      5-min Rain = 0
KBWS 180458Z 05007KT 06/M00 A302 RMK A01 T00571004  RH  065%=      5-min Rain = 0
KBWS 180459Z 05007KT 06/M00 A302 RMK A01 T00571004  RH  064%=      5-min Rain = 0

Page generated in 0.1177 seconds.